<?xml version="1.0" encoding="UTF-8" standalone="no" ?>
<gpx xmlns="http://www.topografix.com/GPX/1/1" xmlns:xsi="http://www.w3.org/2001/XMLSchema-instance" xsi:schemaLocation="http://www.topografix.com/GPX/1/1 http://www.topografix.com/GPX/1/1/gpx.xsd" version="1.1" creator="VisuGPX - https://www.visugpx.com">
  <metadata>
    <name>2021/03/31 Randonnée col du Plafond</name>
    <desc><![CDATA[Col du Plafond-roche des Fées-tête d'Osseux-chalet Preux-Chaxelles-basse de Martimpré-Rambaville-Col du Plafond.]]></desc>
  </metadata>
  <trk>
    <name><![CDATA[2021/03/31 Randonnée col du Plafond_1]]></name>
    <trkseg>
      <trkpt lat="48.16538" lon="6.91835">
        <ele>619</ele>
        <time>2021-03-31T09:00:10+02:00</time>
      </trkpt>
      <trkpt lat="48.1653" lon="6.9186">
        <ele>619</ele>
        <time>2021-03-31T09:05:11+02:00</time>
      </trkpt>
      <trkpt lat="48.16527" lon="6.91887">
        <ele>620</ele>
        <time>2021-03-31T09:05:28+02:00</time>
      </trkpt>
      <trkpt lat="48.16526" lon="6.91914">
        <ele>620</ele>
        <time>2021-03-31T09:05:45+02:00</time>
      </trkpt>
      <trkpt lat="48.16529" lon="6.91945">
        <ele>621</ele>
        <time>2021-03-31T09:06:06+02:00</time>
      </trkpt>
      <trkpt lat="48.16532" lon="6.91974">
        <ele>622</ele>
        <time>2021-03-31T09:06:24+02:00</time>
      </trkpt>
      <trkpt lat="48.16536" lon="6.92002">
        <ele>622</ele>
        <time>2021-03-31T09:06:42+02:00</time>
      </trkpt>
      <trkpt lat="48.16542" lon="6.9203">
        <ele>624</ele>
        <time>2021-03-31T09:07:07+02:00</time>
      </trkpt>
      <trkpt lat="48.16553" lon="6.92067">
        <ele>626</ele>
        <time>2021-03-31T09:07:26+02:00</time>
      </trkpt>
      <trkpt lat="48.16559" lon="6.92095">
        <ele>628</ele>
        <time>2021-03-31T09:07:50+02:00</time>
      </trkpt>
      <trkpt lat="48.1656" lon="6.92116">
        <ele>629</ele>
        <time>2021-03-31T09:08:20+02:00</time>
      </trkpt>
      <trkpt lat="48.16562" lon="6.92142">
        <ele>630</ele>
        <time>2021-03-31T09:08:43+02:00</time>
      </trkpt>
      <trkpt lat="48.16563" lon="6.92172">
        <ele>632</ele>
        <time>2021-03-31T09:09:08+02:00</time>
      </trkpt>
      <trkpt lat="48.16566" lon="6.922">
        <ele>634</ele>
        <time>2021-03-31T09:09:28+02:00</time>
      </trkpt>
      <trkpt lat="48.16571" lon="6.92226">
        <ele>635</ele>
        <time>2021-03-31T09:09:50+02:00</time>
      </trkpt>
      <trkpt lat="48.16578" lon="6.92254">
        <ele>636</ele>
        <time>2021-03-31T09:10:13+02:00</time>
      </trkpt>
      <trkpt lat="48.16592" lon="6.92294">
        <ele>637</ele>
        <time>2021-03-31T09:10:37+02:00</time>
      </trkpt>
      <trkpt lat="48.16566" lon="6.92374">
        <ele>647</ele>
        <time>2021-03-31T09:11:13+02:00</time>
      </trkpt>
      <trkpt lat="48.16567" lon="6.9241">
        <ele>649</ele>
        <time>2021-03-31T09:11:51+02:00</time>
      </trkpt>
      <trkpt lat="48.16559" lon="6.92447">
        <ele>652</ele>
        <time>2021-03-31T09:12:20+02:00</time>
      </trkpt>
      <trkpt lat="48.16548" lon="6.92483">
        <ele>657</ele>
        <time>2021-03-31T09:12:47+02:00</time>
      </trkpt>
      <trkpt lat="48.16534" lon="6.92515">
        <ele>661</ele>
        <time>2021-03-31T09:13:16+02:00</time>
      </trkpt>
      <trkpt lat="48.1652" lon="6.92546">
        <ele>665</ele>
        <time>2021-03-31T09:13:46+02:00</time>
      </trkpt>
      <trkpt lat="48.16505" lon="6.92572">
        <ele>669</ele>
        <time>2021-03-31T09:14:13+02:00</time>
      </trkpt>
      <trkpt lat="48.1649" lon="6.92598">
        <ele>673</ele>
        <time>2021-03-31T09:14:41+02:00</time>
      </trkpt>
      <trkpt lat="48.16477" lon="6.92627">
        <ele>675</ele>
        <time>2021-03-31T09:15:10+02:00</time>
      </trkpt>
      <trkpt lat="48.16465" lon="6.92652">
        <ele>678</ele>
        <time>2021-03-31T09:15:37+02:00</time>
      </trkpt>
      <trkpt lat="48.1645" lon="6.92679">
        <ele>680</ele>
        <time>2021-03-31T09:16:02+02:00</time>
      </trkpt>
      <trkpt lat="48.16434" lon="6.92705">
        <ele>683</ele>
        <time>2021-03-31T09:16:26+02:00</time>
      </trkpt>
      <trkpt lat="48.16418" lon="6.92729">
        <ele>686</ele>
        <time>2021-03-31T09:16:48+02:00</time>
      </trkpt>
      <trkpt lat="48.16406" lon="6.92754">
        <ele>688</ele>
        <time>2021-03-31T09:17:09+02:00</time>
      </trkpt>
      <trkpt lat="48.16396" lon="6.9278">
        <ele>689</ele>
        <time>2021-03-31T09:17:29+02:00</time>
      </trkpt>
      <trkpt lat="48.16384" lon="6.92805">
        <ele>690</ele>
        <time>2021-03-31T09:17:50+02:00</time>
      </trkpt>
      <trkpt lat="48.1637" lon="6.92826">
        <ele>692</ele>
        <time>2021-03-31T09:18:11+02:00</time>
      </trkpt>
      <trkpt lat="48.16355" lon="6.92844">
        <ele>693</ele>
        <time>2021-03-31T09:18:36+02:00</time>
      </trkpt>
      <trkpt lat="48.16338" lon="6.92859">
        <ele>694</ele>
        <time>2021-03-31T09:18:55+02:00</time>
      </trkpt>
      <trkpt lat="48.16322" lon="6.92874">
        <ele>695</ele>
        <time>2021-03-31T09:19:15+02:00</time>
      </trkpt>
      <trkpt lat="48.16306" lon="6.92888">
        <ele>696</ele>
        <time>2021-03-31T09:19:45+02:00</time>
      </trkpt>
      <trkpt lat="48.16289" lon="6.92902">
        <ele>697</ele>
        <time>2021-03-31T09:20:05+02:00</time>
      </trkpt>
      <trkpt lat="48.16271" lon="6.92914">
        <ele>698</ele>
        <time>2021-03-31T09:20:24+02:00</time>
      </trkpt>
      <trkpt lat="48.16254" lon="6.92928">
        <ele>698</ele>
        <time>2021-03-31T09:20:44+02:00</time>
      </trkpt>
      <trkpt lat="48.16235" lon="6.92941">
        <ele>699</ele>
        <time>2021-03-31T09:21:04+02:00</time>
      </trkpt>
      <trkpt lat="48.16216" lon="6.92956">
        <ele>700</ele>
        <time>2021-03-31T09:21:27+02:00</time>
      </trkpt>
      <trkpt lat="48.16197" lon="6.92973">
        <ele>701</ele>
        <time>2021-03-31T09:21:47+02:00</time>
      </trkpt>
      <trkpt lat="48.16179" lon="6.92991">
        <ele>702</ele>
        <time>2021-03-31T09:22:08+02:00</time>
      </trkpt>
      <trkpt lat="48.16162" lon="6.93006">
        <ele>703</ele>
        <time>2021-03-31T09:22:28+02:00</time>
      </trkpt>
      <trkpt lat="48.16145" lon="6.93023">
        <ele>705</ele>
        <time>2021-03-31T09:22:48+02:00</time>
      </trkpt>
      <trkpt lat="48.16131" lon="6.93048">
        <ele>706</ele>
        <time>2021-03-31T09:23:09+02:00</time>
      </trkpt>
      <trkpt lat="48.16121" lon="6.93077">
        <ele>707</ele>
        <time>2021-03-31T09:23:30+02:00</time>
      </trkpt>
      <trkpt lat="48.16113" lon="6.93108">
        <ele>708</ele>
        <time>2021-03-31T09:23:52+02:00</time>
      </trkpt>
      <trkpt lat="48.16113" lon="6.93136">
        <ele>708</ele>
        <time>2021-03-31T09:24:51+02:00</time>
      </trkpt>
      <trkpt lat="48.16112" lon="6.93168">
        <ele>708</ele>
        <time>2021-03-31T09:25:12+02:00</time>
      </trkpt>
      <trkpt lat="48.16108" lon="6.93198">
        <ele>709</ele>
        <time>2021-03-31T09:25:32+02:00</time>
      </trkpt>
      <trkpt lat="48.16101" lon="6.93227">
        <ele>712</ele>
        <time>2021-03-31T09:25:54+02:00</time>
      </trkpt>
      <trkpt lat="48.16091" lon="6.93255">
        <ele>714</ele>
        <time>2021-03-31T09:26:16+02:00</time>
      </trkpt>
      <trkpt lat="48.16081" lon="6.93284">
        <ele>718</ele>
        <time>2021-03-31T09:26:42+02:00</time>
      </trkpt>
      <trkpt lat="48.16073" lon="6.93314">
        <ele>721</ele>
        <time>2021-03-31T09:27:08+02:00</time>
      </trkpt>
      <trkpt lat="48.16068" lon="6.93344">
        <ele>723</ele>
        <time>2021-03-31T09:27:34+02:00</time>
      </trkpt>
      <trkpt lat="48.16052" lon="6.93372">
        <ele>726</ele>
        <time>2021-03-31T09:28:05+02:00</time>
      </trkpt>
      <trkpt lat="48.16037" lon="6.93394">
        <ele>729</ele>
        <time>2021-03-31T09:28:33+02:00</time>
      </trkpt>
      <trkpt lat="48.16017" lon="6.93411">
        <ele>734</ele>
        <time>2021-03-31T09:28:59+02:00</time>
      </trkpt>
      <trkpt lat="48.16" lon="6.93425">
        <ele>737</ele>
        <time>2021-03-31T09:29:27+02:00</time>
      </trkpt>
      <trkpt lat="48.1598" lon="6.93445">
        <ele>740</ele>
        <time>2021-03-31T09:29:54+02:00</time>
      </trkpt>
      <trkpt lat="48.15963" lon="6.93462">
        <ele>742</ele>
        <time>2021-03-31T09:30:20+02:00</time>
      </trkpt>
      <trkpt lat="48.15943" lon="6.93479">
        <ele>745</ele>
        <time>2021-03-31T09:30:50+02:00</time>
      </trkpt>
      <trkpt lat="48.15922" lon="6.93491">
        <ele>748</ele>
        <time>2021-03-31T09:31:16+02:00</time>
      </trkpt>
      <trkpt lat="48.15899" lon="6.93506">
        <ele>752</ele>
        <time>2021-03-31T09:31:44+02:00</time>
      </trkpt>
      <trkpt lat="48.15877" lon="6.93518">
        <ele>755</ele>
        <time>2021-03-31T09:32:11+02:00</time>
      </trkpt>
      <trkpt lat="48.15855" lon="6.93535">
        <ele>758</ele>
        <time>2021-03-31T09:32:48+02:00</time>
      </trkpt>
      <trkpt lat="48.15825" lon="6.93544">
        <ele>762</ele>
        <time>2021-03-31T09:33:20+02:00</time>
      </trkpt>
      <trkpt lat="48.15795" lon="6.93559">
        <ele>765</ele>
        <time>2021-03-31T09:33:53+02:00</time>
      </trkpt>
      <trkpt lat="48.15763" lon="6.93566">
        <ele>768</ele>
        <time>2021-03-31T09:34:27+02:00</time>
      </trkpt>
      <trkpt lat="48.15736" lon="6.93554">
        <ele>770</ele>
        <time>2021-03-31T09:35:06+02:00</time>
      </trkpt>
      <trkpt lat="48.15711" lon="6.93568">
        <ele>773</ele>
        <time>2021-03-31T09:35:40+02:00</time>
      </trkpt>
      <trkpt lat="48.15688" lon="6.93582">
        <ele>777</ele>
        <time>2021-03-31T09:36:30+02:00</time>
      </trkpt>
      <trkpt lat="48.15661" lon="6.93591">
        <ele>781</ele>
        <time>2021-03-31T09:37:03+02:00</time>
      </trkpt>
      <trkpt lat="48.15632" lon="6.93597">
        <ele>783</ele>
        <time>2021-03-31T09:37:36+02:00</time>
      </trkpt>
      <trkpt lat="48.15614" lon="6.93617">
        <ele>787</ele>
        <time>2021-03-31T09:38:05+02:00</time>
      </trkpt>
      <trkpt lat="48.15599" lon="6.9364">
        <ele>790</ele>
        <time>2021-03-31T09:38:34+02:00</time>
      </trkpt>
      <trkpt lat="48.1558" lon="6.93661">
        <ele>793</ele>
        <time>2021-03-31T09:39:08+02:00</time>
      </trkpt>
      <trkpt lat="48.1556" lon="6.93685">
        <ele>796</ele>
        <time>2021-03-31T09:39:43+02:00</time>
      </trkpt>
      <trkpt lat="48.15558" lon="6.93699">
        <ele>797</ele>
        <time>2021-03-31T09:40:49+02:00</time>
      </trkpt>
      <trkpt lat="48.15543" lon="6.93708">
        <ele>799</ele>
        <time>2021-03-31T09:41:35+02:00</time>
      </trkpt>
      <trkpt lat="48.15525" lon="6.93726">
        <ele>802</ele>
        <time>2021-03-31T09:42:06+02:00</time>
      </trkpt>
      <trkpt lat="48.15506" lon="6.93734">
        <ele>804</ele>
        <time>2021-03-31T09:42:36+02:00</time>
      </trkpt>
      <trkpt lat="48.1549" lon="6.93738">
        <ele>805</ele>
        <time>2021-03-31T09:43:06+02:00</time>
      </trkpt>
      <trkpt lat="48.15477" lon="6.93756">
        <ele>807</ele>
        <time>2021-03-31T09:43:33+02:00</time>
      </trkpt>
      <trkpt lat="48.15467" lon="6.93777">
        <ele>809</ele>
        <time>2021-03-31T09:43:56+02:00</time>
      </trkpt>
      <trkpt lat="48.15453" lon="6.93795">
        <ele>811</ele>
        <time>2021-03-31T09:44:25+02:00</time>
      </trkpt>
      <trkpt lat="48.15433" lon="6.93806">
        <ele>814</ele>
        <time>2021-03-31T09:44:52+02:00</time>
      </trkpt>
      <trkpt lat="48.15419" lon="6.93829">
        <ele>817</ele>
        <time>2021-03-31T09:45:18+02:00</time>
      </trkpt>
      <trkpt lat="48.15404" lon="6.93852">
        <ele>818</ele>
        <time>2021-03-31T09:45:39+02:00</time>
      </trkpt>
      <trkpt lat="48.15393" lon="6.93877">
        <ele>820</ele>
        <time>2021-03-31T09:45:59+02:00</time>
      </trkpt>
      <trkpt lat="48.15384" lon="6.93903">
        <ele>822</ele>
        <time>2021-03-31T09:46:17+02:00</time>
      </trkpt>
      <trkpt lat="48.15377" lon="6.93931">
        <ele>824</ele>
        <time>2021-03-31T09:46:36+02:00</time>
      </trkpt>
      <trkpt lat="48.15369" lon="6.93956">
        <ele>826</ele>
        <time>2021-03-31T09:46:55+02:00</time>
      </trkpt>
      <trkpt lat="48.15361" lon="6.93981">
        <ele>829</ele>
        <time>2021-03-31T09:47:14+02:00</time>
      </trkpt>
      <trkpt lat="48.15353" lon="6.94008">
        <ele>831</ele>
        <time>2021-03-31T09:47:35+02:00</time>
      </trkpt>
      <trkpt lat="48.15345" lon="6.94035">
        <ele>831</ele>
        <time>2021-03-31T09:47:55+02:00</time>
      </trkpt>
      <trkpt lat="48.1534" lon="6.94066">
        <ele>832</ele>
        <time>2021-03-31T09:48:16+02:00</time>
      </trkpt>
      <trkpt lat="48.15331" lon="6.94094">
        <ele>833</ele>
        <time>2021-03-31T09:48:39+02:00</time>
      </trkpt>
      <trkpt lat="48.15334" lon="6.94114">
        <ele>834</ele>
        <time>2021-03-31T09:49:51+02:00</time>
      </trkpt>
      <trkpt lat="48.15333" lon="6.94142">
        <ele>835</ele>
        <time>2021-03-31T09:54:16+02:00</time>
      </trkpt>
      <trkpt lat="48.15321" lon="6.94194">
        <ele>837</ele>
        <time>2021-03-31T09:54:42+02:00</time>
      </trkpt>
      <trkpt lat="48.15318" lon="6.9423">
        <ele>838</ele>
        <time>2021-03-31T09:55:07+02:00</time>
      </trkpt>
      <trkpt lat="48.15316" lon="6.94256">
        <ele>840</ele>
        <time>2021-03-31T09:55:38+02:00</time>
      </trkpt>
      <trkpt lat="48.1531" lon="6.94291">
        <ele>842</ele>
        <time>2021-03-31T09:56:10+02:00</time>
      </trkpt>
      <trkpt lat="48.15305" lon="6.94331">
        <ele>844</ele>
        <time>2021-03-31T09:56:46+02:00</time>
      </trkpt>
      <trkpt lat="48.15299" lon="6.94375">
        <ele>846</ele>
        <time>2021-03-31T09:57:28+02:00</time>
      </trkpt>
      <trkpt lat="48.15283" lon="6.94421">
        <ele>850</ele>
        <time>2021-03-31T09:57:57+02:00</time>
      </trkpt>
      <trkpt lat="48.15266" lon="6.94448">
        <ele>855</ele>
        <time>2021-03-31T09:58:24+02:00</time>
      </trkpt>
      <trkpt lat="48.15248" lon="6.94476">
        <ele>861</ele>
        <time>2021-03-31T09:58:56+02:00</time>
      </trkpt>
      <trkpt lat="48.15235" lon="6.94506">
        <ele>864</ele>
        <time>2021-03-31T09:59:20+02:00</time>
      </trkpt>
      <trkpt lat="48.15228" lon="6.94527">
        <ele>865</ele>
        <time>2021-03-31T09:59:44+02:00</time>
      </trkpt>
      <trkpt lat="48.15217" lon="6.94558">
        <ele>867</ele>
        <time>2021-03-31T10:00:11+02:00</time>
      </trkpt>
      <trkpt lat="48.152" lon="6.94587">
        <ele>870</ele>
        <time>2021-03-31T10:00:38+02:00</time>
      </trkpt>
      <trkpt lat="48.15184" lon="6.94624">
        <ele>872</ele>
        <time>2021-03-31T10:01:06+02:00</time>
      </trkpt>
      <trkpt lat="48.15171" lon="6.94664">
        <ele>875</ele>
        <time>2021-03-31T10:01:42+02:00</time>
      </trkpt>
      <trkpt lat="48.15167" lon="6.94708">
        <ele>877</ele>
        <time>2021-03-31T10:02:21+02:00</time>
      </trkpt>
      <trkpt lat="48.15162" lon="6.9475">
        <ele>878</ele>
        <time>2021-03-31T10:02:54+02:00</time>
      </trkpt>
      <trkpt lat="48.15154" lon="6.94804">
        <ele>883</ele>
        <time>2021-03-31T10:03:29+02:00</time>
      </trkpt>
      <trkpt lat="48.15149" lon="6.94843">
        <ele>886</ele>
        <time>2021-03-31T10:04:01+02:00</time>
      </trkpt>
      <trkpt lat="48.15148" lon="6.94883">
        <ele>887</ele>
        <time>2021-03-31T10:04:29+02:00</time>
      </trkpt>
      <trkpt lat="48.15139" lon="6.94934">
        <ele>890</ele>
        <time>2021-03-31T10:04:52+02:00</time>
      </trkpt>
      <trkpt lat="48.15127" lon="6.94969">
        <ele>893</ele>
        <time>2021-03-31T10:05:23+02:00</time>
      </trkpt>
      <trkpt lat="48.15105" lon="6.95004">
        <ele>896</ele>
        <time>2021-03-31T10:05:53+02:00</time>
      </trkpt>
      <trkpt lat="48.15087" lon="6.95035">
        <ele>899</ele>
        <time>2021-03-31T10:06:25+02:00</time>
      </trkpt>
      <trkpt lat="48.15063" lon="6.95061">
        <ele>901</ele>
        <time>2021-03-31T10:07:02+02:00</time>
      </trkpt>
      <trkpt lat="48.15044" lon="6.95101">
        <ele>902</ele>
        <time>2021-03-31T10:07:38+02:00</time>
      </trkpt>
      <trkpt lat="48.15014" lon="6.9511">
        <ele>905</ele>
        <time>2021-03-31T10:08:12+02:00</time>
      </trkpt>
      <trkpt lat="48.14983" lon="6.95125">
        <ele>906</ele>
        <time>2021-03-31T10:08:45+02:00</time>
      </trkpt>
      <trkpt lat="48.14972" lon="6.95152">
        <ele>906</ele>
        <time>2021-03-31T10:09:29+02:00</time>
      </trkpt>
      <trkpt lat="48.14971" lon="6.95188">
        <ele>908</ele>
        <time>2021-03-31T10:10:10+02:00</time>
      </trkpt>
      <trkpt lat="48.14958" lon="6.9525">
        <ele>913</ele>
        <time>2021-03-31T10:10:44+02:00</time>
      </trkpt>
      <trkpt lat="48.14945" lon="6.95288">
        <ele>916</ele>
        <time>2021-03-31T10:11:23+02:00</time>
      </trkpt>
      <trkpt lat="48.14938" lon="6.95324">
        <ele>919</ele>
        <time>2021-03-31T10:12:08+02:00</time>
      </trkpt>
      <trkpt lat="48.14938" lon="6.95354">
        <ele>921</ele>
        <time>2021-03-31T10:12:41+02:00</time>
      </trkpt>
      <trkpt lat="48.14924" lon="6.95414">
        <ele>927</ele>
        <time>2021-03-31T10:13:17+02:00</time>
      </trkpt>
      <trkpt lat="48.14916" lon="6.9545">
        <ele>931</ele>
        <time>2021-03-31T10:13:51+02:00</time>
      </trkpt>
      <trkpt lat="48.14901" lon="6.95492">
        <ele>935</ele>
        <time>2021-03-31T10:14:17+02:00</time>
      </trkpt>
      <trkpt lat="48.14887" lon="6.95539">
        <ele>936</ele>
        <time>2021-03-31T10:14:45+02:00</time>
      </trkpt>
      <trkpt lat="48.14869" lon="6.95565">
        <ele>936</ele>
        <time>2021-03-31T10:15:16+02:00</time>
      </trkpt>
      <trkpt lat="48.14856" lon="6.95603">
        <ele>936</ele>
        <time>2021-03-31T10:15:51+02:00</time>
      </trkpt>
      <trkpt lat="48.14841" lon="6.95655">
        <ele>937</ele>
        <time>2021-03-31T10:16:26+02:00</time>
      </trkpt>
      <trkpt lat="48.14828" lon="6.95702">
        <ele>936</ele>
        <time>2021-03-31T10:16:54+02:00</time>
      </trkpt>
      <trkpt lat="48.14806" lon="6.95696">
        <ele>936</ele>
        <time>2021-03-31T10:17:37+02:00</time>
      </trkpt>
      <trkpt lat="48.14784" lon="6.95682">
        <ele>936</ele>
        <time>2021-03-31T10:18:16+02:00</time>
      </trkpt>
      <trkpt lat="48.1476" lon="6.95663">
        <ele>936</ele>
        <time>2021-03-31T10:18:53+02:00</time>
      </trkpt>
      <trkpt lat="48.14739" lon="6.95635">
        <ele>933</ele>
        <time>2021-03-31T10:19:31+02:00</time>
      </trkpt>
      <trkpt lat="48.1472" lon="6.95597">
        <ele>929</ele>
        <time>2021-03-31T10:20:05+02:00</time>
      </trkpt>
      <trkpt lat="48.14704" lon="6.95574">
        <ele>926</ele>
        <time>2021-03-31T10:20:41+02:00</time>
      </trkpt>
      <trkpt lat="48.14687" lon="6.95545">
        <ele>920</ele>
        <time>2021-03-31T10:21:24+02:00</time>
      </trkpt>
      <trkpt lat="48.14668" lon="6.95538">
        <ele>917</ele>
        <time>2021-03-31T10:22:06+02:00</time>
      </trkpt>
      <trkpt lat="48.1465" lon="6.95517">
        <ele>911</ele>
        <time>2021-03-31T10:22:54+02:00</time>
      </trkpt>
      <trkpt lat="48.14632" lon="6.95495">
        <ele>907</ele>
        <time>2021-03-31T10:23:29+02:00</time>
      </trkpt>
      <trkpt lat="48.14607" lon="6.95468">
        <ele>900</ele>
        <time>2021-03-31T10:24:08+02:00</time>
      </trkpt>
      <trkpt lat="48.14587" lon="6.95446">
        <ele>894</ele>
        <time>2021-03-31T10:24:45+02:00</time>
      </trkpt>
      <trkpt lat="48.14562" lon="6.95425">
        <ele>889</ele>
        <time>2021-03-31T10:25:18+02:00</time>
      </trkpt>
      <trkpt lat="48.14535" lon="6.95401">
        <ele>884</ele>
        <time>2021-03-31T10:25:54+02:00</time>
      </trkpt>
      <trkpt lat="48.14516" lon="6.95394">
        <ele>882</ele>
        <time>2021-03-31T10:26:46+02:00</time>
      </trkpt>
      <trkpt lat="48.14501" lon="6.95399">
        <ele>882</ele>
        <time>2021-03-31T10:27:39+02:00</time>
      </trkpt>
      <trkpt lat="48.14476" lon="6.95413">
        <ele>881</ele>
        <time>2021-03-31T10:28:06+02:00</time>
      </trkpt>
      <trkpt lat="48.14492" lon="6.95401">
        <ele>881</ele>
        <time>2021-03-31T10:28:41+02:00</time>
      </trkpt>
      <trkpt lat="48.14527" lon="6.95388">
        <ele>882</ele>
        <time>2021-03-31T10:29:14+02:00</time>
      </trkpt>
      <trkpt lat="48.14517" lon="6.95366">
        <ele>880</ele>
        <time>2021-03-31T10:29:48+02:00</time>
      </trkpt>
      <trkpt lat="48.14498" lon="6.95346">
        <ele>877</ele>
        <time>2021-03-31T10:30:13+02:00</time>
      </trkpt>
      <trkpt lat="48.14477" lon="6.95324">
        <ele>875</ele>
        <time>2021-03-31T10:30:41+02:00</time>
      </trkpt>
      <trkpt lat="48.14457" lon="6.95303">
        <ele>873</ele>
        <time>2021-03-31T10:31:20+02:00</time>
      </trkpt>
      <trkpt lat="48.14435" lon="6.95283">
        <ele>873</ele>
        <time>2021-03-31T10:31:52+02:00</time>
      </trkpt>
      <trkpt lat="48.14414" lon="6.95265">
        <ele>875</ele>
        <time>2021-03-31T10:32:22+02:00</time>
      </trkpt>
      <trkpt lat="48.14389" lon="6.95243">
        <ele>875</ele>
        <time>2021-03-31T10:32:58+02:00</time>
      </trkpt>
      <trkpt lat="48.14366" lon="6.95218">
        <ele>874</ele>
        <time>2021-03-31T10:33:36+02:00</time>
      </trkpt>
      <trkpt lat="48.14342" lon="6.95188">
        <ele>873</ele>
        <time>2021-03-31T10:34:09+02:00</time>
      </trkpt>
      <trkpt lat="48.14321" lon="6.95169">
        <ele>871</ele>
        <time>2021-03-31T10:34:45+02:00</time>
      </trkpt>
      <trkpt lat="48.14294" lon="6.95127">
        <ele>864</ele>
        <time>2021-03-31T10:35:14+02:00</time>
      </trkpt>
      <trkpt lat="48.14273" lon="6.95102">
        <ele>859</ele>
        <time>2021-03-31T10:35:54+02:00</time>
      </trkpt>
      <trkpt lat="48.14248" lon="6.95079">
        <ele>854</ele>
        <time>2021-03-31T10:36:30+02:00</time>
      </trkpt>
      <trkpt lat="48.14225" lon="6.9505">
        <ele>847</ele>
        <time>2021-03-31T10:37:01+02:00</time>
      </trkpt>
      <trkpt lat="48.14198" lon="6.95021">
        <ele>839</ele>
        <time>2021-03-31T10:37:40+02:00</time>
      </trkpt>
      <trkpt lat="48.14181" lon="6.95005">
        <ele>834</ele>
        <time>2021-03-31T10:38:19+02:00</time>
      </trkpt>
      <trkpt lat="48.14169" lon="6.94998">
        <ele>832</ele>
        <time>2021-03-31T10:39:35+02:00</time>
      </trkpt>
      <trkpt lat="48.14141" lon="6.95011">
        <ele>833</ele>
        <time>2021-03-31T10:40:01+02:00</time>
      </trkpt>
      <trkpt lat="48.14121" lon="6.95024">
        <ele>834</ele>
        <time>2021-03-31T10:40:20+02:00</time>
      </trkpt>
      <trkpt lat="48.14103" lon="6.95036">
        <ele>835</ele>
        <time>2021-03-31T10:40:42+02:00</time>
      </trkpt>
      <trkpt lat="48.14085" lon="6.9505">
        <ele>836</ele>
        <time>2021-03-31T10:41:06+02:00</time>
      </trkpt>
      <trkpt lat="48.14068" lon="6.95067">
        <ele>838</ele>
        <time>2021-03-31T10:41:26+02:00</time>
      </trkpt>
      <trkpt lat="48.14049" lon="6.95082">
        <ele>839</ele>
        <time>2021-03-31T10:41:48+02:00</time>
      </trkpt>
      <trkpt lat="48.14026" lon="6.95064">
        <ele>838</ele>
        <time>2021-03-31T10:42:13+02:00</time>
      </trkpt>
      <trkpt lat="48.14023" lon="6.95064">
        <ele>838</ele>
        <time>2021-03-31T10:43:19+02:00</time>
      </trkpt>
      <trkpt lat="48.14012" lon="6.95029">
        <ele>841</ele>
        <time>2021-03-31T10:43:59+02:00</time>
      </trkpt>
      <trkpt lat="48.14003" lon="6.94997">
        <ele>844</ele>
        <time>2021-03-31T10:44:36+02:00</time>
      </trkpt>
      <trkpt lat="48.13997" lon="6.94951">
        <ele>846</ele>
        <time>2021-03-31T10:45:07+02:00</time>
      </trkpt>
      <trkpt lat="48.13991" lon="6.94902">
        <ele>847</ele>
        <time>2021-03-31T10:45:40+02:00</time>
      </trkpt>
      <trkpt lat="48.13972" lon="6.94858">
        <ele>850</ele>
        <time>2021-03-31T10:46:12+02:00</time>
      </trkpt>
      <trkpt lat="48.1398" lon="6.94876">
        <ele>848</ele>
        <time>2021-03-31T10:46:46+02:00</time>
      </trkpt>
      <trkpt lat="48.13993" lon="6.94921">
        <ele>847</ele>
        <time>2021-03-31T10:47:15+02:00</time>
      </trkpt>
      <trkpt lat="48.13995" lon="6.9496">
        <ele>846</ele>
        <time>2021-03-31T10:47:38+02:00</time>
      </trkpt>
      <trkpt lat="48.13992" lon="6.94988">
        <ele>847</ele>
        <time>2021-03-31T10:48:03+02:00</time>
      </trkpt>
      <trkpt lat="48.13967" lon="6.95022">
        <ele>850</ele>
        <time>2021-03-31T10:48:38+02:00</time>
      </trkpt>
      <trkpt lat="48.13934" lon="6.95015">
        <ele>860</ele>
        <time>2021-03-31T10:49:14+02:00</time>
      </trkpt>
      <trkpt lat="48.1391" lon="6.95">
        <ele>870</ele>
        <time>2021-03-31T10:49:49+02:00</time>
      </trkpt>
      <trkpt lat="48.13878" lon="6.94989">
        <ele>876</ele>
        <time>2021-03-31T10:50:21+02:00</time>
      </trkpt>
      <trkpt lat="48.13855" lon="6.95">
        <ele>879</ele>
        <time>2021-03-31T10:50:49+02:00</time>
      </trkpt>
      <trkpt lat="48.1384" lon="6.95014">
        <ele>876</ele>
        <time>2021-03-31T10:54:59+02:00</time>
      </trkpt>
      <trkpt lat="48.13829" lon="6.95027">
        <ele>871</ele>
        <time>2021-03-31T11:05:40+02:00</time>
      </trkpt>
      <trkpt lat="48.13821" lon="6.95034">
        <ele>867</ele>
        <time>2021-03-31T11:11:42+02:00</time>
      </trkpt>
      <trkpt lat="48.13805" lon="6.9504">
        <ele>863</ele>
        <time>2021-03-31T11:16:30+02:00</time>
      </trkpt>
      <trkpt lat="48.13771" lon="6.95022">
        <ele>869</ele>
        <time>2021-03-31T11:17:06+02:00</time>
      </trkpt>
      <trkpt lat="48.13743" lon="6.95016">
        <ele>870</ele>
        <time>2021-03-31T11:17:34+02:00</time>
      </trkpt>
      <trkpt lat="48.13713" lon="6.94998">
        <ele>870</ele>
        <time>2021-03-31T11:18:00+02:00</time>
      </trkpt>
      <trkpt lat="48.13691" lon="6.94969">
        <ele>872</ele>
        <time>2021-03-31T11:18:30+02:00</time>
      </trkpt>
      <trkpt lat="48.13668" lon="6.94926">
        <ele>878</ele>
        <time>2021-03-31T11:18:59+02:00</time>
      </trkpt>
      <trkpt lat="48.13655" lon="6.94888">
        <ele>879</ele>
        <time>2021-03-31T11:19:26+02:00</time>
      </trkpt>
      <trkpt lat="48.13639" lon="6.94851">
        <ele>878</ele>
        <time>2021-03-31T11:19:49+02:00</time>
      </trkpt>
      <trkpt lat="48.13623" lon="6.94815">
        <ele>876</ele>
        <time>2021-03-31T11:20:13+02:00</time>
      </trkpt>
      <trkpt lat="48.13605" lon="6.94776">
        <ele>875</ele>
        <time>2021-03-31T11:20:41+02:00</time>
      </trkpt>
      <trkpt lat="48.13581" lon="6.94746">
        <ele>872</ele>
        <time>2021-03-31T11:21:12+02:00</time>
      </trkpt>
      <trkpt lat="48.13551" lon="6.94723">
        <ele>867</ele>
        <time>2021-03-31T11:21:40+02:00</time>
      </trkpt>
      <trkpt lat="48.13514" lon="6.94702">
        <ele>861</ele>
        <time>2021-03-31T11:22:11+02:00</time>
      </trkpt>
      <trkpt lat="48.13479" lon="6.94673">
        <ele>860</ele>
        <time>2021-03-31T11:22:43+02:00</time>
      </trkpt>
      <trkpt lat="48.13447" lon="6.94655">
        <ele>857</ele>
        <time>2021-03-31T11:23:10+02:00</time>
      </trkpt>
      <trkpt lat="48.13418" lon="6.94643">
        <ele>855</ele>
        <time>2021-03-31T11:23:36+02:00</time>
      </trkpt>
      <trkpt lat="48.13395" lon="6.94624">
        <ele>854</ele>
        <time>2021-03-31T11:24:08+02:00</time>
      </trkpt>
      <trkpt lat="48.13368" lon="6.94603">
        <ele>854</ele>
        <time>2021-03-31T11:24:40+02:00</time>
      </trkpt>
      <trkpt lat="48.13361" lon="6.94591">
        <ele>854</ele>
        <time>2021-03-31T11:25:14+02:00</time>
      </trkpt>
      <trkpt lat="48.13334" lon="6.94576">
        <ele>853</ele>
        <time>2021-03-31T11:25:39+02:00</time>
      </trkpt>
      <trkpt lat="48.13313" lon="6.9456">
        <ele>855</ele>
        <time>2021-03-31T11:26:06+02:00</time>
      </trkpt>
      <trkpt lat="48.13289" lon="6.9453">
        <ele>856</ele>
        <time>2021-03-31T11:26:43+02:00</time>
      </trkpt>
      <trkpt lat="48.13272" lon="6.94495">
        <ele>857</ele>
        <time>2021-03-31T11:27:16+02:00</time>
      </trkpt>
      <trkpt lat="48.13244" lon="6.94472">
        <ele>857</ele>
        <time>2021-03-31T11:27:44+02:00</time>
      </trkpt>
      <trkpt lat="48.13222" lon="6.94445">
        <ele>857</ele>
        <time>2021-03-31T11:28:12+02:00</time>
      </trkpt>
      <trkpt lat="48.13197" lon="6.94413">
        <ele>858</ele>
        <time>2021-03-31T11:28:40+02:00</time>
      </trkpt>
      <trkpt lat="48.13174" lon="6.94383">
        <ele>860</ele>
        <time>2021-03-31T11:29:07+02:00</time>
      </trkpt>
      <trkpt lat="48.13147" lon="6.94375">
        <ele>863</ele>
        <time>2021-03-31T11:29:31+02:00</time>
      </trkpt>
      <trkpt lat="48.13127" lon="6.94374">
        <ele>864</ele>
        <time>2021-03-31T11:29:53+02:00</time>
      </trkpt>
      <trkpt lat="48.13105" lon="6.94376">
        <ele>866</ele>
        <time>2021-03-31T11:30:15+02:00</time>
      </trkpt>
      <trkpt lat="48.13084" lon="6.9434">
        <ele>868</ele>
        <time>2021-03-31T11:30:43+02:00</time>
      </trkpt>
      <trkpt lat="48.13082" lon="6.94297">
        <ele>870</ele>
        <time>2021-03-31T11:31:18+02:00</time>
      </trkpt>
      <trkpt lat="48.13081" lon="6.94269">
        <ele>872</ele>
        <time>2021-03-31T11:31:43+02:00</time>
      </trkpt>
      <trkpt lat="48.13082" lon="6.94237">
        <ele>875</ele>
        <time>2021-03-31T11:32:09+02:00</time>
      </trkpt>
      <trkpt lat="48.13085" lon="6.94195">
        <ele>879</ele>
        <time>2021-03-31T11:32:41+02:00</time>
      </trkpt>
      <trkpt lat="48.13102" lon="6.94144">
        <ele>882</ele>
        <time>2021-03-31T11:33:15+02:00</time>
      </trkpt>
      <trkpt lat="48.13116" lon="6.94113">
        <ele>884</ele>
        <time>2021-03-31T11:33:45+02:00</time>
      </trkpt>
      <trkpt lat="48.13136" lon="6.94072">
        <ele>886</ele>
        <time>2021-03-31T11:34:18+02:00</time>
      </trkpt>
      <trkpt lat="48.13136" lon="6.94031">
        <ele>890</ele>
        <time>2021-03-31T11:34:57+02:00</time>
      </trkpt>
      <trkpt lat="48.13116" lon="6.94015">
        <ele>894</ele>
        <time>2021-03-31T11:35:28+02:00</time>
      </trkpt>
      <trkpt lat="48.13083" lon="6.93999">
        <ele>899</ele>
        <time>2021-03-31T11:36:02+02:00</time>
      </trkpt>
      <trkpt lat="48.13058" lon="6.93994">
        <ele>900</ele>
        <time>2021-03-31T11:36:32+02:00</time>
      </trkpt>
      <trkpt lat="48.13034" lon="6.94004">
        <ele>902</ele>
        <time>2021-03-31T11:37:01+02:00</time>
      </trkpt>
      <trkpt lat="48.13019" lon="6.94003">
        <ele>903</ele>
        <time>2021-03-31T11:37:47+02:00</time>
      </trkpt>
      <trkpt lat="48.12998" lon="6.94018">
        <ele>904</ele>
        <time>2021-03-31T11:38:31+02:00</time>
      </trkpt>
      <trkpt lat="48.1298" lon="6.94042">
        <ele>905</ele>
        <time>2021-03-31T11:39:08+02:00</time>
      </trkpt>
      <trkpt lat="48.12954" lon="6.94054">
        <ele>907</ele>
        <time>2021-03-31T11:39:37+02:00</time>
      </trkpt>
      <trkpt lat="48.12931" lon="6.94071">
        <ele>909</ele>
        <time>2021-03-31T11:40:04+02:00</time>
      </trkpt>
      <trkpt lat="48.12903" lon="6.94078">
        <ele>912</ele>
        <time>2021-03-31T11:40:27+02:00</time>
      </trkpt>
      <trkpt lat="48.12878" lon="6.94079">
        <ele>913</ele>
        <time>2021-03-31T11:40:48+02:00</time>
      </trkpt>
      <trkpt lat="48.12854" lon="6.94063">
        <ele>915</ele>
        <time>2021-03-31T11:41:10+02:00</time>
      </trkpt>
      <trkpt lat="48.12829" lon="6.94043">
        <ele>916</ele>
        <time>2021-03-31T11:41:44+02:00</time>
      </trkpt>
      <trkpt lat="48.1281" lon="6.94025">
        <ele>917</ele>
        <time>2021-03-31T11:42:23+02:00</time>
      </trkpt>
      <trkpt lat="48.12786" lon="6.94004">
        <ele>919</ele>
        <time>2021-03-31T11:42:55+02:00</time>
      </trkpt>
      <trkpt lat="48.12753" lon="6.93976">
        <ele>921</ele>
        <time>2021-03-31T11:43:27+02:00</time>
      </trkpt>
      <trkpt lat="48.12732" lon="6.93967">
        <ele>923</ele>
        <time>2021-03-31T11:43:57+02:00</time>
      </trkpt>
      <trkpt lat="48.12695" lon="6.93956">
        <ele>927</ele>
        <time>2021-03-31T11:44:31+02:00</time>
      </trkpt>
      <trkpt lat="48.12664" lon="6.93946">
        <ele>932</ele>
        <time>2021-03-31T11:45:05+02:00</time>
      </trkpt>
      <trkpt lat="48.12632" lon="6.93943">
        <ele>934</ele>
        <time>2021-03-31T11:45:33+02:00</time>
      </trkpt>
      <trkpt lat="48.12604" lon="6.93932">
        <ele>939</ele>
        <time>2021-03-31T11:46:07+02:00</time>
      </trkpt>
      <trkpt lat="48.12574" lon="6.9392">
        <ele>944</ele>
        <time>2021-03-31T11:46:38+02:00</time>
      </trkpt>
      <trkpt lat="48.12551" lon="6.93901">
        <ele>946</ele>
        <time>2021-03-31T11:47:08+02:00</time>
      </trkpt>
      <trkpt lat="48.1253" lon="6.93885">
        <ele>949</ele>
        <time>2021-03-31T11:47:41+02:00</time>
      </trkpt>
      <trkpt lat="48.12503" lon="6.93874">
        <ele>952</ele>
        <time>2021-03-31T11:48:08+02:00</time>
      </trkpt>
      <trkpt lat="48.12474" lon="6.93866">
        <ele>955</ele>
        <time>2021-03-31T11:48:40+02:00</time>
      </trkpt>
      <trkpt lat="48.12446" lon="6.93864">
        <ele>958</ele>
        <time>2021-03-31T11:49:04+02:00</time>
      </trkpt>
      <trkpt lat="48.1242" lon="6.93863">
        <ele>960</ele>
        <time>2021-03-31T11:49:27+02:00</time>
      </trkpt>
      <trkpt lat="48.12396" lon="6.9387">
        <ele>959</ele>
        <time>2021-03-31T11:49:49+02:00</time>
      </trkpt>
      <trkpt lat="48.1237" lon="6.93871">
        <ele>960</ele>
        <time>2021-03-31T11:50:19+02:00</time>
      </trkpt>
      <trkpt lat="48.12344" lon="6.93861">
        <ele>963</ele>
        <time>2021-03-31T11:50:48+02:00</time>
      </trkpt>
      <trkpt lat="48.12317" lon="6.93857">
        <ele>966</ele>
        <time>2021-03-31T11:51:14+02:00</time>
      </trkpt>
      <trkpt lat="48.12294" lon="6.93856">
        <ele>967</ele>
        <time>2021-03-31T11:51:46+02:00</time>
      </trkpt>
      <trkpt lat="48.12267" lon="6.93864">
        <ele>967</ele>
        <time>2021-03-31T11:52:14+02:00</time>
      </trkpt>
      <trkpt lat="48.12239" lon="6.93871">
        <ele>967</ele>
        <time>2021-03-31T11:52:37+02:00</time>
      </trkpt>
      <trkpt lat="48.12212" lon="6.93879">
        <ele>967</ele>
        <time>2021-03-31T11:52:59+02:00</time>
      </trkpt>
      <trkpt lat="48.12188" lon="6.93882">
        <ele>969</ele>
        <time>2021-03-31T11:53:23+02:00</time>
      </trkpt>
      <trkpt lat="48.12164" lon="6.93879">
        <ele>970</ele>
        <time>2021-03-31T11:53:50+02:00</time>
      </trkpt>
      <trkpt lat="48.12138" lon="6.93862">
        <ele>970</ele>
        <time>2021-03-31T11:54:15+02:00</time>
      </trkpt>
      <trkpt lat="48.12117" lon="6.93828">
        <ele>972</ele>
        <time>2021-03-31T11:54:42+02:00</time>
      </trkpt>
      <trkpt lat="48.12091" lon="6.93798">
        <ele>972</ele>
        <time>2021-03-31T11:55:12+02:00</time>
      </trkpt>
      <trkpt lat="48.12066" lon="6.93768">
        <ele>971</ele>
        <time>2021-03-31T11:55:37+02:00</time>
      </trkpt>
      <trkpt lat="48.12048" lon="6.93749">
        <ele>971</ele>
        <time>2021-03-31T11:56:00+02:00</time>
      </trkpt>
      <trkpt lat="48.12036" lon="6.9373">
        <ele>970</ele>
        <time>2021-03-31T11:56:24+02:00</time>
      </trkpt>
      <trkpt lat="48.12021" lon="6.93704">
        <ele>970</ele>
        <time>2021-03-31T11:56:50+02:00</time>
      </trkpt>
      <trkpt lat="48.12004" lon="6.93667">
        <ele>972</ele>
        <time>2021-03-31T11:57:17+02:00</time>
      </trkpt>
      <trkpt lat="48.11995" lon="6.93645">
        <ele>972</ele>
        <time>2021-03-31T11:57:46+02:00</time>
      </trkpt>
      <trkpt lat="48.12001" lon="6.93647">
        <ele>972</ele>
        <time>2021-03-31T12:05:06+02:00</time>
      </trkpt>
      <trkpt lat="48.11979" lon="6.93637">
        <ele>972</ele>
        <time>2021-03-31T12:05:35+02:00</time>
      </trkpt>
      <trkpt lat="48.11951" lon="6.9364">
        <ele>973</ele>
        <time>2021-03-31T12:06:03+02:00</time>
      </trkpt>
      <trkpt lat="48.11922" lon="6.9364">
        <ele>973</ele>
        <time>2021-03-31T12:06:25+02:00</time>
      </trkpt>
      <trkpt lat="48.11904" lon="6.93663">
        <ele>968</ele>
        <time>2021-03-31T12:06:47+02:00</time>
      </trkpt>
      <trkpt lat="48.11889" lon="6.93688">
        <ele>954</ele>
        <time>2021-03-31T12:07:18+02:00</time>
      </trkpt>
      <trkpt lat="48.11877" lon="6.93695">
        <ele>947</ele>
        <time>2021-03-31T12:09:37+02:00</time>
      </trkpt>
      <trkpt lat="48.11896" lon="6.93677">
        <ele>961</ele>
        <time>2021-03-31T12:10:24+02:00</time>
      </trkpt>
      <trkpt lat="48.11912" lon="6.93645">
        <ele>972</ele>
        <time>2021-03-31T12:10:56+02:00</time>
      </trkpt>
      <trkpt lat="48.11934" lon="6.93633">
        <ele>974</ele>
        <time>2021-03-31T12:11:25+02:00</time>
      </trkpt>
      <trkpt lat="48.11962" lon="6.93613">
        <ele>974</ele>
        <time>2021-03-31T12:12:03+02:00</time>
      </trkpt>
      <trkpt lat="48.11963" lon="6.93594">
        <ele>974</ele>
        <time>2021-03-31T12:12:55+02:00</time>
      </trkpt>
      <trkpt lat="48.11966" lon="6.93553">
        <ele>974</ele>
        <time>2021-03-31T12:13:29+02:00</time>
      </trkpt>
      <trkpt lat="48.11978" lon="6.9351">
        <ele>972</ele>
        <time>2021-03-31T12:13:58+02:00</time>
      </trkpt>
      <trkpt lat="48.1199" lon="6.93476">
        <ele>972</ele>
        <time>2021-03-31T12:14:25+02:00</time>
      </trkpt>
      <trkpt lat="48.12004" lon="6.93438">
        <ele>971</ele>
        <time>2021-03-31T12:14:52+02:00</time>
      </trkpt>
      <trkpt lat="48.12014" lon="6.93408">
        <ele>971</ele>
        <time>2021-03-31T12:15:16+02:00</time>
      </trkpt>
      <trkpt lat="48.12015" lon="6.93363">
        <ele>971</ele>
        <time>2021-03-31T12:15:45+02:00</time>
      </trkpt>
      <trkpt lat="48.12024" lon="6.93322">
        <ele>970</ele>
        <time>2021-03-31T12:16:11+02:00</time>
      </trkpt>
      <trkpt lat="48.12029" lon="6.93279">
        <ele>968</ele>
        <time>2021-03-31T12:16:37+02:00</time>
      </trkpt>
      <trkpt lat="48.12038" lon="6.9323">
        <ele>966</ele>
        <time>2021-03-31T12:17:08+02:00</time>
      </trkpt>
      <trkpt lat="48.12047" lon="6.93186">
        <ele>964</ele>
        <time>2021-03-31T12:17:39+02:00</time>
      </trkpt>
      <trkpt lat="48.12056" lon="6.93137">
        <ele>962</ele>
        <time>2021-03-31T12:18:14+02:00</time>
      </trkpt>
      <trkpt lat="48.12069" lon="6.93087">
        <ele>959</ele>
        <time>2021-03-31T12:18:41+02:00</time>
      </trkpt>
      <trkpt lat="48.12081" lon="6.93052">
        <ele>955</ele>
        <time>2021-03-31T12:19:03+02:00</time>
      </trkpt>
      <trkpt lat="48.12093" lon="6.93031">
        <ele>952</ele>
        <time>2021-03-31T12:19:21+02:00</time>
      </trkpt>
      <trkpt lat="48.121" lon="6.93008">
        <ele>949</ele>
        <time>2021-03-31T12:19:35+02:00</time>
      </trkpt>
      <trkpt lat="48.12105" lon="6.92978">
        <ele>948</ele>
        <time>2021-03-31T12:19:54+02:00</time>
      </trkpt>
      <trkpt lat="48.12109" lon="6.92945">
        <ele>946</ele>
        <time>2021-03-31T12:20:15+02:00</time>
      </trkpt>
      <trkpt lat="48.12116" lon="6.92919">
        <ele>943</ele>
        <time>2021-03-31T12:20:36+02:00</time>
      </trkpt>
      <trkpt lat="48.12122" lon="6.92887">
        <ele>941</ele>
        <time>2021-03-31T12:20:55+02:00</time>
      </trkpt>
      <trkpt lat="48.12122" lon="6.9286">
        <ele>940</ele>
        <time>2021-03-31T12:21:22+02:00</time>
      </trkpt>
      <trkpt lat="48.12124" lon="6.92827">
        <ele>938</ele>
        <time>2021-03-31T12:21:43+02:00</time>
      </trkpt>
      <trkpt lat="48.12129" lon="6.92794">
        <ele>933</ele>
        <time>2021-03-31T12:22:02+02:00</time>
      </trkpt>
      <trkpt lat="48.12135" lon="6.92761">
        <ele>929</ele>
        <time>2021-03-31T12:22:22+02:00</time>
      </trkpt>
      <trkpt lat="48.12147" lon="6.92748">
        <ele>925</ele>
        <time>2021-03-31T12:23:01+02:00</time>
      </trkpt>
      <trkpt lat="48.12165" lon="6.92759">
        <ele>922</ele>
        <time>2021-03-31T12:23:22+02:00</time>
      </trkpt>
      <trkpt lat="48.12183" lon="6.92772">
        <ele>920</ele>
        <time>2021-03-31T12:23:41+02:00</time>
      </trkpt>
      <trkpt lat="48.122" lon="6.92783">
        <ele>918</ele>
        <time>2021-03-31T12:24:01+02:00</time>
      </trkpt>
      <trkpt lat="48.1222" lon="6.92796">
        <ele>916</ele>
        <time>2021-03-31T12:24:21+02:00</time>
      </trkpt>
      <trkpt lat="48.12236" lon="6.92808">
        <ele>915</ele>
        <time>2021-03-31T12:24:58+02:00</time>
      </trkpt>
      <trkpt lat="48.12254" lon="6.92821">
        <ele>913</ele>
        <time>2021-03-31T12:25:18+02:00</time>
      </trkpt>
      <trkpt lat="48.12276" lon="6.9283">
        <ele>912</ele>
        <time>2021-03-31T12:25:38+02:00</time>
      </trkpt>
      <trkpt lat="48.12296" lon="6.92834">
        <ele>911</ele>
        <time>2021-03-31T12:25:55+02:00</time>
      </trkpt>
      <trkpt lat="48.12311" lon="6.92816">
        <ele>907</ele>
        <time>2021-03-31T12:26:17+02:00</time>
      </trkpt>
      <trkpt lat="48.12303" lon="6.92792">
        <ele>905</ele>
        <time>2021-03-31T12:26:32+02:00</time>
      </trkpt>
      <trkpt lat="48.12297" lon="6.92767">
        <ele>903</ele>
        <time>2021-03-31T12:26:49+02:00</time>
      </trkpt>
      <trkpt lat="48.12291" lon="6.92742">
        <ele>901</ele>
        <time>2021-03-31T12:27:05+02:00</time>
      </trkpt>
      <trkpt lat="48.12283" lon="6.92715">
        <ele>898</ele>
        <time>2021-03-31T12:27:26+02:00</time>
      </trkpt>
      <trkpt lat="48.12277" lon="6.92689">
        <ele>896</ele>
        <time>2021-03-31T12:27:40+02:00</time>
      </trkpt>
      <trkpt lat="48.12274" lon="6.92663">
        <ele>893</ele>
        <time>2021-03-31T12:27:55+02:00</time>
      </trkpt>
      <trkpt lat="48.1227" lon="6.92637">
        <ele>891</ele>
        <time>2021-03-31T12:28:10+02:00</time>
      </trkpt>
      <trkpt lat="48.1227" lon="6.92609">
        <ele>888</ele>
        <time>2021-03-31T12:28:26+02:00</time>
      </trkpt>
      <trkpt lat="48.12266" lon="6.92581">
        <ele>885</ele>
        <time>2021-03-31T12:28:42+02:00</time>
      </trkpt>
      <trkpt lat="48.12259" lon="6.92556">
        <ele>885</ele>
        <time>2021-03-31T12:28:57+02:00</time>
      </trkpt>
      <trkpt lat="48.12247" lon="6.92533">
        <ele>885</ele>
        <time>2021-03-31T12:29:16+02:00</time>
      </trkpt>
      <trkpt lat="48.12233" lon="6.9251">
        <ele>886</ele>
        <time>2021-03-31T12:29:59+02:00</time>
      </trkpt>
      <trkpt lat="48.1222" lon="6.92491">
        <ele>887</ele>
        <time>2021-03-31T12:30:16+02:00</time>
      </trkpt>
      <trkpt lat="48.12207" lon="6.92467">
        <ele>887</ele>
        <time>2021-03-31T12:30:34+02:00</time>
      </trkpt>
      <trkpt lat="48.12193" lon="6.92444">
        <ele>888</ele>
        <time>2021-03-31T12:30:52+02:00</time>
      </trkpt>
      <trkpt lat="48.12176" lon="6.92418">
        <ele>890</ele>
        <time>2021-03-31T12:31:19+02:00</time>
      </trkpt>
      <trkpt lat="48.12161" lon="6.92394">
        <ele>892</ele>
        <time>2021-03-31T12:31:38+02:00</time>
      </trkpt>
      <trkpt lat="48.12151" lon="6.92359">
        <ele>891</ele>
        <time>2021-03-31T12:31:59+02:00</time>
      </trkpt>
      <trkpt lat="48.12155" lon="6.92329">
        <ele>889</ele>
        <time>2021-03-31T12:32:31+02:00</time>
      </trkpt>
      <trkpt lat="48.12163" lon="6.92301">
        <ele>886</ele>
        <time>2021-03-31T12:32:50+02:00</time>
      </trkpt>
      <trkpt lat="48.12171" lon="6.92275">
        <ele>883</ele>
        <time>2021-03-31T12:33:09+02:00</time>
      </trkpt>
      <trkpt lat="48.12181" lon="6.9225">
        <ele>881</ele>
        <time>2021-03-31T12:33:27+02:00</time>
      </trkpt>
      <trkpt lat="48.12191" lon="6.92222">
        <ele>879</ele>
        <time>2021-03-31T12:33:47+02:00</time>
      </trkpt>
      <trkpt lat="48.12195" lon="6.92189">
        <ele>878</ele>
        <time>2021-03-31T12:34:13+02:00</time>
      </trkpt>
      <trkpt lat="48.12194" lon="6.92144">
        <ele>877</ele>
        <time>2021-03-31T12:34:42+02:00</time>
      </trkpt>
      <trkpt lat="48.12186" lon="6.92107">
        <ele>877</ele>
        <time>2021-03-31T12:35:10+02:00</time>
      </trkpt>
      <trkpt lat="48.12187" lon="6.92058">
        <ele>875</ele>
        <time>2021-03-31T12:35:47+02:00</time>
      </trkpt>
      <trkpt lat="48.12189" lon="6.92009">
        <ele>872</ele>
        <time>2021-03-31T12:36:25+02:00</time>
      </trkpt>
      <trkpt lat="48.12197" lon="6.91963">
        <ele>867</ele>
        <time>2021-03-31T12:36:59+02:00</time>
      </trkpt>
      <trkpt lat="48.12206" lon="6.91902">
        <ele>860</ele>
        <time>2021-03-31T12:37:35+02:00</time>
      </trkpt>
      <trkpt lat="48.12198" lon="6.91852">
        <ele>859</ele>
        <time>2021-03-31T12:38:04+02:00</time>
      </trkpt>
      <trkpt lat="48.12188" lon="6.91818">
        <ele>859</ele>
        <time>2021-03-31T12:38:35+02:00</time>
      </trkpt>
      <trkpt lat="48.12197" lon="6.91774">
        <ele>854</ele>
        <time>2021-03-31T12:39:03+02:00</time>
      </trkpt>
      <trkpt lat="48.12207" lon="6.91732">
        <ele>850</ele>
        <time>2021-03-31T12:39:27+02:00</time>
      </trkpt>
      <trkpt lat="48.12209" lon="6.917">
        <ele>848</ele>
        <time>2021-03-31T12:39:51+02:00</time>
      </trkpt>
      <trkpt lat="48.12216" lon="6.91682">
        <ele>846</ele>
        <time>2021-03-31T12:40:59+02:00</time>
      </trkpt>
      <trkpt lat="48.12228" lon="6.91681">
        <ele>844</ele>
        <time>2021-03-31T12:42:11+02:00</time>
      </trkpt>
      <trkpt lat="48.12247" lon="6.91679">
        <ele>840</ele>
        <time>2021-03-31T12:42:51+02:00</time>
      </trkpt>
      <trkpt lat="48.12264" lon="6.91678">
        <ele>838</ele>
        <time>2021-03-31T12:43:16+02:00</time>
      </trkpt>
      <trkpt lat="48.12282" lon="6.91672">
        <ele>836</ele>
        <time>2021-03-31T12:43:35+02:00</time>
      </trkpt>
      <trkpt lat="48.12299" lon="6.91665">
        <ele>834</ele>
        <time>2021-03-31T12:44:06+02:00</time>
      </trkpt>
      <trkpt lat="48.12318" lon="6.9166">
        <ele>832</ele>
        <time>2021-03-31T12:44:23+02:00</time>
      </trkpt>
      <trkpt lat="48.12337" lon="6.91653">
        <ele>829</ele>
        <time>2021-03-31T12:44:42+02:00</time>
      </trkpt>
      <trkpt lat="48.12357" lon="6.91647">
        <ele>823</ele>
        <time>2021-03-31T12:45:01+02:00</time>
      </trkpt>
      <trkpt lat="48.12368" lon="6.9163">
        <ele>818</ele>
        <time>2021-03-31T12:45:24+02:00</time>
      </trkpt>
      <trkpt lat="48.12358" lon="6.91601">
        <ele>818</ele>
        <time>2021-03-31T12:45:55+02:00</time>
      </trkpt>
      <trkpt lat="48.12333" lon="6.91569">
        <ele>820</ele>
        <time>2021-03-31T12:46:28+02:00</time>
      </trkpt>
      <trkpt lat="48.1231" lon="6.91538">
        <ele>815</ele>
        <time>2021-03-31T12:46:58+02:00</time>
      </trkpt>
      <trkpt lat="48.1229" lon="6.91507">
        <ele>810</ele>
        <time>2021-03-31T12:47:29+02:00</time>
      </trkpt>
      <trkpt lat="48.12265" lon="6.9148">
        <ele>806</ele>
        <time>2021-03-31T12:47:59+02:00</time>
      </trkpt>
      <trkpt lat="48.12244" lon="6.91463">
        <ele>804</ele>
        <time>2021-03-31T12:48:34+02:00</time>
      </trkpt>
      <trkpt lat="48.12245" lon="6.91452">
        <ele>802</ele>
        <time>2021-03-31T12:49:09+02:00</time>
      </trkpt>
      <trkpt lat="48.12252" lon="6.9143">
        <ele>796</ele>
        <time>2021-03-31T12:49:42+02:00</time>
      </trkpt>
      <trkpt lat="48.1228" lon="6.91404">
        <ele>786</ele>
        <time>2021-03-31T12:50:16+02:00</time>
      </trkpt>
      <trkpt lat="48.1228" lon="6.91382">
        <ele>781</ele>
        <time>2021-03-31T12:50:48+02:00</time>
      </trkpt>
      <trkpt lat="48.12273" lon="6.91362">
        <ele>778</ele>
        <time>2021-03-31T12:53:28+02:00</time>
      </trkpt>
      <trkpt lat="48.12256" lon="6.91337">
        <ele>776</ele>
        <time>2021-03-31T12:53:52+02:00</time>
      </trkpt>
      <trkpt lat="48.12235" lon="6.91303">
        <ele>773</ele>
        <time>2021-03-31T12:54:24+02:00</time>
      </trkpt>
      <trkpt lat="48.12214" lon="6.91269">
        <ele>769</ele>
        <time>2021-03-31T12:54:50+02:00</time>
      </trkpt>
      <trkpt lat="48.12215" lon="6.91243">
        <ele>764</ele>
        <time>2021-03-31T12:55:09+02:00</time>
      </trkpt>
      <trkpt lat="48.12228" lon="6.91221">
        <ele>757</ele>
        <time>2021-03-31T12:55:24+02:00</time>
      </trkpt>
      <trkpt lat="48.12244" lon="6.91204">
        <ele>751</ele>
        <time>2021-03-31T12:55:40+02:00</time>
      </trkpt>
      <trkpt lat="48.12262" lon="6.91195">
        <ele>747</ele>
        <time>2021-03-31T12:55:58+02:00</time>
      </trkpt>
      <trkpt lat="48.12283" lon="6.91185">
        <ele>744</ele>
        <time>2021-03-31T12:56:19+02:00</time>
      </trkpt>
      <trkpt lat="48.12302" lon="6.91175">
        <ele>740</ele>
        <time>2021-03-31T12:56:37+02:00</time>
      </trkpt>
      <trkpt lat="48.12321" lon="6.91161">
        <ele>738</ele>
        <time>2021-03-31T12:56:53+02:00</time>
      </trkpt>
      <trkpt lat="48.12333" lon="6.9114">
        <ele>737</ele>
        <time>2021-03-31T12:57:10+02:00</time>
      </trkpt>
      <trkpt lat="48.12343" lon="6.91114">
        <ele>738</ele>
        <time>2021-03-31T12:57:34+02:00</time>
      </trkpt>
      <trkpt lat="48.12357" lon="6.91092">
        <ele>738</ele>
        <time>2021-03-31T12:57:53+02:00</time>
      </trkpt>
      <trkpt lat="48.12371" lon="6.91067">
        <ele>738</ele>
        <time>2021-03-31T12:58:15+02:00</time>
      </trkpt>
      <trkpt lat="48.12383" lon="6.91035">
        <ele>738</ele>
        <time>2021-03-31T12:58:34+02:00</time>
      </trkpt>
      <trkpt lat="48.12394" lon="6.91009">
        <ele>738</ele>
        <time>2021-03-31T12:58:51+02:00</time>
      </trkpt>
      <trkpt lat="48.12408" lon="6.90984">
        <ele>737</ele>
        <time>2021-03-31T12:59:10+02:00</time>
      </trkpt>
      <trkpt lat="48.12426" lon="6.9097">
        <ele>736</ele>
        <time>2021-03-31T12:59:28+02:00</time>
      </trkpt>
      <trkpt lat="48.12444" lon="6.90975">
        <ele>736</ele>
        <time>2021-03-31T12:59:46+02:00</time>
      </trkpt>
      <trkpt lat="48.12463" lon="6.90975">
        <ele>736</ele>
        <time>2021-03-31T13:00:05+02:00</time>
      </trkpt>
      <trkpt lat="48.12483" lon="6.90978">
        <ele>736</ele>
        <time>2021-03-31T13:00:27+02:00</time>
      </trkpt>
      <trkpt lat="48.12508" lon="6.90977">
        <ele>735</ele>
        <time>2021-03-31T13:00:46+02:00</time>
      </trkpt>
      <trkpt lat="48.1253" lon="6.90976">
        <ele>734</ele>
        <time>2021-03-31T13:01:09+02:00</time>
      </trkpt>
      <trkpt lat="48.12554" lon="6.9097">
        <ele>733</ele>
        <time>2021-03-31T13:01:30+02:00</time>
      </trkpt>
      <trkpt lat="48.12576" lon="6.90963">
        <ele>731</ele>
        <time>2021-03-31T13:01:50+02:00</time>
      </trkpt>
      <trkpt lat="48.12597" lon="6.90959">
        <ele>731</ele>
        <time>2021-03-31T13:02:07+02:00</time>
      </trkpt>
      <trkpt lat="48.12615" lon="6.9096">
        <ele>731</ele>
        <time>2021-03-31T13:02:25+02:00</time>
      </trkpt>
      <trkpt lat="48.12634" lon="6.90958">
        <ele>731</ele>
        <time>2021-03-31T13:02:48+02:00</time>
      </trkpt>
      <trkpt lat="48.12638" lon="6.9093">
        <ele>730</ele>
        <time>2021-03-31T13:03:10+02:00</time>
      </trkpt>
      <trkpt lat="48.12633" lon="6.909">
        <ele>729</ele>
        <time>2021-03-31T13:03:32+02:00</time>
      </trkpt>
      <trkpt lat="48.12644" lon="6.90865">
        <ele>728</ele>
        <time>2021-03-31T13:03:59+02:00</time>
      </trkpt>
      <trkpt lat="48.12665" lon="6.9085">
        <ele>727</ele>
        <time>2021-03-31T13:04:19+02:00</time>
      </trkpt>
      <trkpt lat="48.12684" lon="6.90841">
        <ele>726</ele>
        <time>2021-03-31T13:04:41+02:00</time>
      </trkpt>
      <trkpt lat="48.12703" lon="6.90833">
        <ele>726</ele>
        <time>2021-03-31T13:04:58+02:00</time>
      </trkpt>
      <trkpt lat="48.12723" lon="6.90824">
        <ele>725</ele>
        <time>2021-03-31T13:05:19+02:00</time>
      </trkpt>
      <trkpt lat="48.12744" lon="6.90819">
        <ele>725</ele>
        <time>2021-03-31T13:05:36+02:00</time>
      </trkpt>
      <trkpt lat="48.12762" lon="6.90812">
        <ele>725</ele>
        <time>2021-03-31T13:05:53+02:00</time>
      </trkpt>
      <trkpt lat="48.1278" lon="6.90806">
        <ele>725</ele>
        <time>2021-03-31T13:06:11+02:00</time>
      </trkpt>
      <trkpt lat="48.12799" lon="6.90797">
        <ele>725</ele>
        <time>2021-03-31T13:06:32+02:00</time>
      </trkpt>
      <trkpt lat="48.12822" lon="6.90787">
        <ele>725</ele>
        <time>2021-03-31T13:06:51+02:00</time>
      </trkpt>
      <trkpt lat="48.12841" lon="6.90778">
        <ele>725</ele>
        <time>2021-03-31T13:07:08+02:00</time>
      </trkpt>
      <trkpt lat="48.12859" lon="6.9077">
        <ele>725</ele>
        <time>2021-03-31T13:07:25+02:00</time>
      </trkpt>
      <trkpt lat="48.12876" lon="6.90761">
        <ele>725</ele>
        <time>2021-03-31T13:07:41+02:00</time>
      </trkpt>
      <trkpt lat="48.12893" lon="6.90749">
        <ele>724</ele>
        <time>2021-03-31T13:08:06+02:00</time>
      </trkpt>
      <trkpt lat="48.1291" lon="6.90737">
        <ele>724</ele>
        <time>2021-03-31T13:08:24+02:00</time>
      </trkpt>
      <trkpt lat="48.12926" lon="6.90722">
        <ele>724</ele>
        <time>2021-03-31T13:08:45+02:00</time>
      </trkpt>
      <trkpt lat="48.12942" lon="6.90706">
        <ele>725</ele>
        <time>2021-03-31T13:09:10+02:00</time>
      </trkpt>
      <trkpt lat="48.12959" lon="6.90685">
        <ele>725</ele>
        <time>2021-03-31T13:09:52+02:00</time>
      </trkpt>
      <trkpt lat="48.12973" lon="6.90664">
        <ele>726</ele>
        <time>2021-03-31T13:10:11+02:00</time>
      </trkpt>
      <trkpt lat="48.12989" lon="6.90642">
        <ele>726</ele>
        <time>2021-03-31T13:10:30+02:00</time>
      </trkpt>
      <trkpt lat="48.13003" lon="6.90623">
        <ele>727</ele>
        <time>2021-03-31T13:10:50+02:00</time>
      </trkpt>
      <trkpt lat="48.13017" lon="6.90607">
        <ele>728</ele>
        <time>2021-03-31T13:11:09+02:00</time>
      </trkpt>
      <trkpt lat="48.13035" lon="6.90588">
        <ele>729</ele>
        <time>2021-03-31T13:11:31+02:00</time>
      </trkpt>
      <trkpt lat="48.13056" lon="6.9057">
        <ele>730</ele>
        <time>2021-03-31T13:11:53+02:00</time>
      </trkpt>
      <trkpt lat="48.13079" lon="6.90546">
        <ele>731</ele>
        <time>2021-03-31T13:12:17+02:00</time>
      </trkpt>
      <trkpt lat="48.13097" lon="6.90528">
        <ele>732</ele>
        <time>2021-03-31T13:12:41+02:00</time>
      </trkpt>
      <trkpt lat="48.13116" lon="6.90506">
        <ele>732</ele>
        <time>2021-03-31T13:13:06+02:00</time>
      </trkpt>
      <trkpt lat="48.13139" lon="6.9049">
        <ele>733</ele>
        <time>2021-03-31T13:13:30+02:00</time>
      </trkpt>
      <trkpt lat="48.13164" lon="6.90477">
        <ele>734</ele>
        <time>2021-03-31T13:13:56+02:00</time>
      </trkpt>
      <trkpt lat="48.13187" lon="6.90469">
        <ele>735</ele>
        <time>2021-03-31T13:14:39+02:00</time>
      </trkpt>
      <trkpt lat="48.13208" lon="6.90452">
        <ele>736</ele>
        <time>2021-03-31T13:15:09+02:00</time>
      </trkpt>
      <trkpt lat="48.13222" lon="6.90438">
        <ele>737</ele>
        <time>2021-03-31T13:15:48+02:00</time>
      </trkpt>
      <trkpt lat="48.13235" lon="6.90419">
        <ele>737</ele>
        <time>2021-03-31T13:16:20+02:00</time>
      </trkpt>
      <trkpt lat="48.13272" lon="6.90424">
        <ele>740</ele>
        <time>2021-03-31T13:20:08+02:00</time>
      </trkpt>
      <trkpt lat="48.13277" lon="6.90424">
        <ele>740</ele>
        <time>2021-03-31T13:21:22+02:00</time>
      </trkpt>
      <trkpt lat="48.13271" lon="6.90405">
        <ele>738</ele>
        <time>2021-03-31T14:34:56+02:00</time>
      </trkpt>
      <trkpt lat="48.13268" lon="6.9039">
        <ele>736</ele>
        <time>2021-03-31T14:35:38+02:00</time>
      </trkpt>
      <trkpt lat="48.13289" lon="6.90372">
        <ele>735</ele>
        <time>2021-03-31T14:36:10+02:00</time>
      </trkpt>
      <trkpt lat="48.13304" lon="6.90349">
        <ele>733</ele>
        <time>2021-03-31T14:36:38+02:00</time>
      </trkpt>
      <trkpt lat="48.13327" lon="6.90335">
        <ele>733</ele>
        <time>2021-03-31T14:37:01+02:00</time>
      </trkpt>
      <trkpt lat="48.13349" lon="6.90318">
        <ele>729</ele>
        <time>2021-03-31T14:37:21+02:00</time>
      </trkpt>
      <trkpt lat="48.13372" lon="6.90307">
        <ele>725</ele>
        <time>2021-03-31T14:37:44+02:00</time>
      </trkpt>
      <trkpt lat="48.13401" lon="6.90305">
        <ele>724</ele>
        <time>2021-03-31T14:38:13+02:00</time>
      </trkpt>
      <trkpt lat="48.13421" lon="6.9031">
        <ele>723</ele>
        <time>2021-03-31T14:38:50+02:00</time>
      </trkpt>
      <trkpt lat="48.13423" lon="6.90319">
        <ele>724</ele>
        <time>2021-03-31T14:40:10+02:00</time>
      </trkpt>
      <trkpt lat="48.13441" lon="6.90313">
        <ele>722</ele>
        <time>2021-03-31T14:41:00+02:00</time>
      </trkpt>
      <trkpt lat="48.13463" lon="6.90316">
        <ele>721</ele>
        <time>2021-03-31T14:41:33+02:00</time>
      </trkpt>
      <trkpt lat="48.13488" lon="6.90321">
        <ele>720</ele>
        <time>2021-03-31T14:42:05+02:00</time>
      </trkpt>
      <trkpt lat="48.13513" lon="6.90322">
        <ele>718</ele>
        <time>2021-03-31T14:42:37+02:00</time>
      </trkpt>
      <trkpt lat="48.13538" lon="6.90314">
        <ele>716</ele>
        <time>2021-03-31T14:43:13+02:00</time>
      </trkpt>
      <trkpt lat="48.13585" lon="6.90306">
        <ele>713</ele>
        <time>2021-03-31T14:43:52+02:00</time>
      </trkpt>
      <trkpt lat="48.13616" lon="6.90316">
        <ele>708</ele>
        <time>2021-03-31T14:44:26+02:00</time>
      </trkpt>
      <trkpt lat="48.13654" lon="6.90326">
        <ele>702</ele>
        <time>2021-03-31T14:45:00+02:00</time>
      </trkpt>
      <trkpt lat="48.13681" lon="6.90339">
        <ele>697</ele>
        <time>2021-03-31T14:45:41+02:00</time>
      </trkpt>
      <trkpt lat="48.13732" lon="6.90339">
        <ele>695</ele>
        <time>2021-03-31T14:46:09+02:00</time>
      </trkpt>
      <trkpt lat="48.13764" lon="6.90334">
        <ele>694</ele>
        <time>2021-03-31T14:46:33+02:00</time>
      </trkpt>
      <trkpt lat="48.13789" lon="6.9034">
        <ele>692</ele>
        <time>2021-03-31T14:47:03+02:00</time>
      </trkpt>
      <trkpt lat="48.13811" lon="6.90351">
        <ele>688</ele>
        <time>2021-03-31T14:47:27+02:00</time>
      </trkpt>
      <trkpt lat="48.13835" lon="6.90361">
        <ele>685</ele>
        <time>2021-03-31T14:47:53+02:00</time>
      </trkpt>
      <trkpt lat="48.13859" lon="6.9037">
        <ele>681</ele>
        <time>2021-03-31T14:48:21+02:00</time>
      </trkpt>
      <trkpt lat="48.13877" lon="6.90357">
        <ele>683</ele>
        <time>2021-03-31T14:48:41+02:00</time>
      </trkpt>
      <trkpt lat="48.13895" lon="6.90343">
        <ele>684</ele>
        <time>2021-03-31T14:49:05+02:00</time>
      </trkpt>
      <trkpt lat="48.13911" lon="6.9032">
        <ele>686</ele>
        <time>2021-03-31T14:49:35+02:00</time>
      </trkpt>
      <trkpt lat="48.13926" lon="6.90292">
        <ele>689</ele>
        <time>2021-03-31T14:50:07+02:00</time>
      </trkpt>
      <trkpt lat="48.13948" lon="6.90268">
        <ele>690</ele>
        <time>2021-03-31T14:50:41+02:00</time>
      </trkpt>
      <trkpt lat="48.13966" lon="6.90242">
        <ele>692</ele>
        <time>2021-03-31T14:51:10+02:00</time>
      </trkpt>
      <trkpt lat="48.13987" lon="6.90213">
        <ele>692</ele>
        <time>2021-03-31T14:51:39+02:00</time>
      </trkpt>
      <trkpt lat="48.14005" lon="6.9018">
        <ele>692</ele>
        <time>2021-03-31T14:52:04+02:00</time>
      </trkpt>
      <trkpt lat="48.14016" lon="6.90153">
        <ele>690</ele>
        <time>2021-03-31T14:52:32+02:00</time>
      </trkpt>
      <trkpt lat="48.14022" lon="6.90108">
        <ele>690</ele>
        <time>2021-03-31T14:53:06+02:00</time>
      </trkpt>
      <trkpt lat="48.14029" lon="6.9007">
        <ele>689</ele>
        <time>2021-03-31T14:53:32+02:00</time>
      </trkpt>
      <trkpt lat="48.14031" lon="6.9002">
        <ele>690</ele>
        <time>2021-03-31T14:54:02+02:00</time>
      </trkpt>
      <trkpt lat="48.14029" lon="6.89968">
        <ele>691</ele>
        <time>2021-03-31T14:54:37+02:00</time>
      </trkpt>
      <trkpt lat="48.1404" lon="6.89916">
        <ele>692</ele>
        <time>2021-03-31T14:55:05+02:00</time>
      </trkpt>
      <trkpt lat="48.14044" lon="6.89865">
        <ele>694</ele>
        <time>2021-03-31T14:55:32+02:00</time>
      </trkpt>
      <trkpt lat="48.14038" lon="6.89816">
        <ele>696</ele>
        <time>2021-03-31T14:56:00+02:00</time>
      </trkpt>
      <trkpt lat="48.14019" lon="6.89788">
        <ele>698</ele>
        <time>2021-03-31T14:56:34+02:00</time>
      </trkpt>
      <trkpt lat="48.14005" lon="6.89769">
        <ele>699</ele>
        <time>2021-03-31T14:56:55+02:00</time>
      </trkpt>
      <trkpt lat="48.13974" lon="6.89716">
        <ele>698</ele>
        <time>2021-03-31T14:57:28+02:00</time>
      </trkpt>
      <trkpt lat="48.13951" lon="6.89691">
        <ele>696</ele>
        <time>2021-03-31T14:57:57+02:00</time>
      </trkpt>
      <trkpt lat="48.13947" lon="6.8967">
        <ele>695</ele>
        <time>2021-03-31T14:58:31+02:00</time>
      </trkpt>
      <trkpt lat="48.13952" lon="6.89641">
        <ele>694</ele>
        <time>2021-03-31T14:59:04+02:00</time>
      </trkpt>
      <trkpt lat="48.1397" lon="6.89627">
        <ele>694</ele>
        <time>2021-03-31T15:00:52+02:00</time>
      </trkpt>
      <trkpt lat="48.13982" lon="6.89622">
        <ele>694</ele>
        <time>2021-03-31T15:02:49+02:00</time>
      </trkpt>
      <trkpt lat="48.13987" lon="6.89601">
        <ele>693</ele>
        <time>2021-03-31T15:03:31+02:00</time>
      </trkpt>
      <trkpt lat="48.14015" lon="6.89618">
        <ele>695</ele>
        <time>2021-03-31T15:04:08+02:00</time>
      </trkpt>
      <trkpt lat="48.14036" lon="6.89644">
        <ele>696</ele>
        <time>2021-03-31T15:04:41+02:00</time>
      </trkpt>
      <trkpt lat="48.14065" lon="6.8964">
        <ele>697</ele>
        <time>2021-03-31T15:05:14+02:00</time>
      </trkpt>
      <trkpt lat="48.14083" lon="6.89628">
        <ele>697</ele>
        <time>2021-03-31T15:05:43+02:00</time>
      </trkpt>
      <trkpt lat="48.14088" lon="6.89602">
        <ele>696</ele>
        <time>2021-03-31T15:06:03+02:00</time>
      </trkpt>
      <trkpt lat="48.14096" lon="6.89579">
        <ele>696</ele>
        <time>2021-03-31T15:06:22+02:00</time>
      </trkpt>
      <trkpt lat="48.14105" lon="6.8955">
        <ele>695</ele>
        <time>2021-03-31T15:06:42+02:00</time>
      </trkpt>
      <trkpt lat="48.14118" lon="6.89527">
        <ele>695</ele>
        <time>2021-03-31T15:07:04+02:00</time>
      </trkpt>
      <trkpt lat="48.14133" lon="6.89499">
        <ele>693</ele>
        <time>2021-03-31T15:07:26+02:00</time>
      </trkpt>
      <trkpt lat="48.14151" lon="6.89476">
        <ele>693</ele>
        <time>2021-03-31T15:07:46+02:00</time>
      </trkpt>
      <trkpt lat="48.14165" lon="6.89452">
        <ele>692</ele>
        <time>2021-03-31T15:08:03+02:00</time>
      </trkpt>
      <trkpt lat="48.14178" lon="6.89421">
        <ele>692</ele>
        <time>2021-03-31T15:08:23+02:00</time>
      </trkpt>
      <trkpt lat="48.1419" lon="6.89389">
        <ele>693</ele>
        <time>2021-03-31T15:08:45+02:00</time>
      </trkpt>
      <trkpt lat="48.14201" lon="6.89357">
        <ele>695</ele>
        <time>2021-03-31T15:09:15+02:00</time>
      </trkpt>
      <trkpt lat="48.14221" lon="6.89326">
        <ele>695</ele>
        <time>2021-03-31T15:09:41+02:00</time>
      </trkpt>
      <trkpt lat="48.14238" lon="6.89301">
        <ele>694</ele>
        <time>2021-03-31T15:10:03+02:00</time>
      </trkpt>
      <trkpt lat="48.14252" lon="6.89269">
        <ele>693</ele>
        <time>2021-03-31T15:10:31+02:00</time>
      </trkpt>
      <trkpt lat="48.14279" lon="6.89267">
        <ele>693</ele>
        <time>2021-03-31T15:11:02+02:00</time>
      </trkpt>
      <trkpt lat="48.14309" lon="6.89287">
        <ele>696</ele>
        <time>2021-03-31T15:11:31+02:00</time>
      </trkpt>
      <trkpt lat="48.14333" lon="6.89312">
        <ele>700</ele>
        <time>2021-03-31T15:12:01+02:00</time>
      </trkpt>
      <trkpt lat="48.14367" lon="6.89305">
        <ele>701</ele>
        <time>2021-03-31T15:12:36+02:00</time>
      </trkpt>
      <trkpt lat="48.14394" lon="6.8929">
        <ele>700</ele>
        <time>2021-03-31T15:13:04+02:00</time>
      </trkpt>
      <trkpt lat="48.14427" lon="6.89281">
        <ele>699</ele>
        <time>2021-03-31T15:13:38+02:00</time>
      </trkpt>
      <trkpt lat="48.14449" lon="6.89269">
        <ele>697</ele>
        <time>2021-03-31T15:14:14+02:00</time>
      </trkpt>
      <trkpt lat="48.14478" lon="6.89248">
        <ele>696</ele>
        <time>2021-03-31T15:14:53+02:00</time>
      </trkpt>
      <trkpt lat="48.14512" lon="6.89217">
        <ele>696</ele>
        <time>2021-03-31T15:15:24+02:00</time>
      </trkpt>
      <trkpt lat="48.14537" lon="6.89183">
        <ele>696</ele>
        <time>2021-03-31T15:15:50+02:00</time>
      </trkpt>
      <trkpt lat="48.14558" lon="6.89163">
        <ele>697</ele>
        <time>2021-03-31T15:16:19+02:00</time>
      </trkpt>
      <trkpt lat="48.14585" lon="6.8914">
        <ele>699</ele>
        <time>2021-03-31T15:16:45+02:00</time>
      </trkpt>
      <trkpt lat="48.14609" lon="6.89109">
        <ele>701</ele>
        <time>2021-03-31T15:17:11+02:00</time>
      </trkpt>
      <trkpt lat="48.14638" lon="6.89105">
        <ele>705</ele>
        <time>2021-03-31T15:17:35+02:00</time>
      </trkpt>
      <trkpt lat="48.14656" lon="6.89128">
        <ele>706</ele>
        <time>2021-03-31T15:17:53+02:00</time>
      </trkpt>
      <trkpt lat="48.14668" lon="6.89156">
        <ele>704</ele>
        <time>2021-03-31T15:18:13+02:00</time>
      </trkpt>
      <trkpt lat="48.14678" lon="6.89182">
        <ele>702</ele>
        <time>2021-03-31T15:18:30+02:00</time>
      </trkpt>
      <trkpt lat="48.14688" lon="6.89205">
        <ele>700</ele>
        <time>2021-03-31T15:18:47+02:00</time>
      </trkpt>
      <trkpt lat="48.14696" lon="6.89234">
        <ele>699</ele>
        <time>2021-03-31T15:19:05+02:00</time>
      </trkpt>
      <trkpt lat="48.14707" lon="6.89262">
        <ele>699</ele>
        <time>2021-03-31T15:19:23+02:00</time>
      </trkpt>
      <trkpt lat="48.14722" lon="6.89284">
        <ele>700</ele>
        <time>2021-03-31T15:19:54+02:00</time>
      </trkpt>
      <trkpt lat="48.1474" lon="6.89298">
        <ele>700</ele>
        <time>2021-03-31T15:20:23+02:00</time>
      </trkpt>
      <trkpt lat="48.14767" lon="6.89312">
        <ele>698</ele>
        <time>2021-03-31T15:20:49+02:00</time>
      </trkpt>
      <trkpt lat="48.14793" lon="6.89336">
        <ele>696</ele>
        <time>2021-03-31T15:21:16+02:00</time>
      </trkpt>
      <trkpt lat="48.14819" lon="6.89352">
        <ele>693</ele>
        <time>2021-03-31T15:21:47+02:00</time>
      </trkpt>
      <trkpt lat="48.14844" lon="6.89369">
        <ele>691</ele>
        <time>2021-03-31T15:22:16+02:00</time>
      </trkpt>
      <trkpt lat="48.1487" lon="6.89379">
        <ele>688</ele>
        <time>2021-03-31T15:22:42+02:00</time>
      </trkpt>
      <trkpt lat="48.14894" lon="6.89406">
        <ele>685</ele>
        <time>2021-03-31T15:23:10+02:00</time>
      </trkpt>
      <trkpt lat="48.14921" lon="6.89414">
        <ele>682</ele>
        <time>2021-03-31T15:23:45+02:00</time>
      </trkpt>
      <trkpt lat="48.14945" lon="6.89391">
        <ele>680</ele>
        <time>2021-03-31T15:24:09+02:00</time>
      </trkpt>
      <trkpt lat="48.14964" lon="6.89381">
        <ele>678</ele>
        <time>2021-03-31T15:24:28+02:00</time>
      </trkpt>
      <trkpt lat="48.14983" lon="6.89369">
        <ele>676</ele>
        <time>2021-03-31T15:25:00+02:00</time>
      </trkpt>
      <trkpt lat="48.15007" lon="6.89355">
        <ele>674</ele>
        <time>2021-03-31T15:25:27+02:00</time>
      </trkpt>
      <trkpt lat="48.15031" lon="6.89341">
        <ele>672</ele>
        <time>2021-03-31T15:25:50+02:00</time>
      </trkpt>
      <trkpt lat="48.15058" lon="6.89345">
        <ele>670</ele>
        <time>2021-03-31T15:26:17+02:00</time>
      </trkpt>
      <trkpt lat="48.1509" lon="6.89354">
        <ele>667</ele>
        <time>2021-03-31T15:26:40+02:00</time>
      </trkpt>
      <trkpt lat="48.15115" lon="6.89353">
        <ele>665</ele>
        <time>2021-03-31T15:26:58+02:00</time>
      </trkpt>
      <trkpt lat="48.15136" lon="6.89346">
        <ele>664</ele>
        <time>2021-03-31T15:27:22+02:00</time>
      </trkpt>
      <trkpt lat="48.15155" lon="6.8934">
        <ele>663</ele>
        <time>2021-03-31T15:27:50+02:00</time>
      </trkpt>
      <trkpt lat="48.15181" lon="6.89322">
        <ele>661</ele>
        <time>2021-03-31T15:28:15+02:00</time>
      </trkpt>
      <trkpt lat="48.15203" lon="6.89311">
        <ele>659</ele>
        <time>2021-03-31T15:28:37+02:00</time>
      </trkpt>
      <trkpt lat="48.15227" lon="6.89304">
        <ele>657</ele>
        <time>2021-03-31T15:28:59+02:00</time>
      </trkpt>
      <trkpt lat="48.15252" lon="6.89298">
        <ele>656</ele>
        <time>2021-03-31T15:29:25+02:00</time>
      </trkpt>
      <trkpt lat="48.15279" lon="6.89288">
        <ele>651</ele>
        <time>2021-03-31T15:29:53+02:00</time>
      </trkpt>
      <trkpt lat="48.15295" lon="6.89277">
        <ele>648</ele>
        <time>2021-03-31T15:30:18+02:00</time>
      </trkpt>
      <trkpt lat="48.15317" lon="6.89246">
        <ele>645</ele>
        <time>2021-03-31T15:30:46+02:00</time>
      </trkpt>
      <trkpt lat="48.15344" lon="6.89232">
        <ele>639</ele>
        <time>2021-03-31T15:31:21+02:00</time>
      </trkpt>
      <trkpt lat="48.15371" lon="6.89222">
        <ele>633</ele>
        <time>2021-03-31T15:31:45+02:00</time>
      </trkpt>
      <trkpt lat="48.15387" lon="6.89225">
        <ele>629</ele>
        <time>2021-03-31T15:32:21+02:00</time>
      </trkpt>
      <trkpt lat="48.15396" lon="6.89239">
        <ele>627</ele>
        <time>2021-03-31T15:35:03+02:00</time>
      </trkpt>
      <trkpt lat="48.15412" lon="6.89238">
        <ele>624</ele>
        <time>2021-03-31T15:35:53+02:00</time>
      </trkpt>
      <trkpt lat="48.15434" lon="6.89256">
        <ele>619</ele>
        <time>2021-03-31T15:36:31+02:00</time>
      </trkpt>
      <trkpt lat="48.15452" lon="6.89278">
        <ele>614</ele>
        <time>2021-03-31T15:37:03+02:00</time>
      </trkpt>
      <trkpt lat="48.15475" lon="6.89302">
        <ele>607</ele>
        <time>2021-03-31T15:37:31+02:00</time>
      </trkpt>
      <trkpt lat="48.15494" lon="6.89315">
        <ele>601</ele>
        <time>2021-03-31T15:37:55+02:00</time>
      </trkpt>
      <trkpt lat="48.15515" lon="6.89316">
        <ele>598</ele>
        <time>2021-03-31T15:38:22+02:00</time>
      </trkpt>
      <trkpt lat="48.15536" lon="6.89321">
        <ele>596</ele>
        <time>2021-03-31T15:38:46+02:00</time>
      </trkpt>
      <trkpt lat="48.15548" lon="6.89342">
        <ele>593</ele>
        <time>2021-03-31T15:39:09+02:00</time>
      </trkpt>
      <trkpt lat="48.15559" lon="6.89375">
        <ele>590</ele>
        <time>2021-03-31T15:39:31+02:00</time>
      </trkpt>
      <trkpt lat="48.15578" lon="6.89396">
        <ele>587</ele>
        <time>2021-03-31T15:39:50+02:00</time>
      </trkpt>
      <trkpt lat="48.15594" lon="6.89415">
        <ele>585</ele>
        <time>2021-03-31T15:40:07+02:00</time>
      </trkpt>
      <trkpt lat="48.15593" lon="6.89425">
        <ele>584</ele>
        <time>2021-03-31T15:40:46+02:00</time>
      </trkpt>
      <trkpt lat="48.15609" lon="6.89426">
        <ele>584</ele>
        <time>2021-03-31T15:41:26+02:00</time>
      </trkpt>
      <trkpt lat="48.15631" lon="6.89428">
        <ele>583</ele>
        <time>2021-03-31T15:41:46+02:00</time>
      </trkpt>
      <trkpt lat="48.15653" lon="6.89424">
        <ele>582</ele>
        <time>2021-03-31T15:42:09+02:00</time>
      </trkpt>
      <trkpt lat="48.15676" lon="6.89425">
        <ele>581</ele>
        <time>2021-03-31T15:42:42+02:00</time>
      </trkpt>
      <trkpt lat="48.15698" lon="6.89426">
        <ele>580</ele>
        <time>2021-03-31T15:43:01+02:00</time>
      </trkpt>
      <trkpt lat="48.15718" lon="6.89426">
        <ele>579</ele>
        <time>2021-03-31T15:43:22+02:00</time>
      </trkpt>
      <trkpt lat="48.15738" lon="6.89423">
        <ele>579</ele>
        <time>2021-03-31T15:43:45+02:00</time>
      </trkpt>
      <trkpt lat="48.15759" lon="6.89419">
        <ele>578</ele>
        <time>2021-03-31T15:44:04+02:00</time>
      </trkpt>
      <trkpt lat="48.15776" lon="6.89409">
        <ele>577</ele>
        <time>2021-03-31T15:44:22+02:00</time>
      </trkpt>
      <trkpt lat="48.15792" lon="6.89392">
        <ele>577</ele>
        <time>2021-03-31T15:44:43+02:00</time>
      </trkpt>
      <trkpt lat="48.15806" lon="6.89373">
        <ele>577</ele>
        <time>2021-03-31T15:45:03+02:00</time>
      </trkpt>
      <trkpt lat="48.15807" lon="6.89347">
        <ele>577</ele>
        <time>2021-03-31T15:45:21+02:00</time>
      </trkpt>
      <trkpt lat="48.15813" lon="6.89324">
        <ele>578</ele>
        <time>2021-03-31T15:45:40+02:00</time>
      </trkpt>
      <trkpt lat="48.15828" lon="6.89309">
        <ele>579</ele>
        <time>2021-03-31T15:46:01+02:00</time>
      </trkpt>
      <trkpt lat="48.1586" lon="6.89287">
        <ele>582</ele>
        <time>2021-03-31T15:46:37+02:00</time>
      </trkpt>
      <trkpt lat="48.15889" lon="6.89284">
        <ele>582</ele>
        <time>2021-03-31T15:47:06+02:00</time>
      </trkpt>
      <trkpt lat="48.15912" lon="6.89273">
        <ele>583</ele>
        <time>2021-03-31T15:47:28+02:00</time>
      </trkpt>
      <trkpt lat="48.15921" lon="6.89248">
        <ele>586</ele>
        <time>2021-03-31T15:47:47+02:00</time>
      </trkpt>
      <trkpt lat="48.15943" lon="6.89233">
        <ele>586</ele>
        <time>2021-03-31T15:48:05+02:00</time>
      </trkpt>
      <trkpt lat="48.15961" lon="6.8922">
        <ele>586</ele>
        <time>2021-03-31T15:48:21+02:00</time>
      </trkpt>
      <trkpt lat="48.15975" lon="6.89197">
        <ele>586</ele>
        <time>2021-03-31T15:48:40+02:00</time>
      </trkpt>
      <trkpt lat="48.15979" lon="6.89171">
        <ele>588</ele>
        <time>2021-03-31T15:49:05+02:00</time>
      </trkpt>
      <trkpt lat="48.15989" lon="6.89133">
        <ele>587</ele>
        <time>2021-03-31T15:49:33+02:00</time>
      </trkpt>
      <trkpt lat="48.15989" lon="6.89093">
        <ele>587</ele>
        <time>2021-03-31T15:50:03+02:00</time>
      </trkpt>
      <trkpt lat="48.15992" lon="6.89069">
        <ele>586</ele>
        <time>2021-03-31T15:50:36+02:00</time>
      </trkpt>
      <trkpt lat="48.16" lon="6.89039">
        <ele>583</ele>
        <time>2021-03-31T15:51:03+02:00</time>
      </trkpt>
      <trkpt lat="48.16012" lon="6.89007">
        <ele>580</ele>
        <time>2021-03-31T15:51:24+02:00</time>
      </trkpt>
      <trkpt lat="48.16027" lon="6.88968">
        <ele>578</ele>
        <time>2021-03-31T15:51:43+02:00</time>
      </trkpt>
      <trkpt lat="48.1603" lon="6.88935">
        <ele>577</ele>
        <time>2021-03-31T15:52:06+02:00</time>
      </trkpt>
      <trkpt lat="48.1603" lon="6.88898">
        <ele>577</ele>
        <time>2021-03-31T15:52:27+02:00</time>
      </trkpt>
      <trkpt lat="48.16031" lon="6.8886">
        <ele>576</ele>
        <time>2021-03-31T15:52:47+02:00</time>
      </trkpt>
      <trkpt lat="48.16032" lon="6.88824">
        <ele>576</ele>
        <time>2021-03-31T15:53:08+02:00</time>
      </trkpt>
      <trkpt lat="48.1603" lon="6.88786">
        <ele>576</ele>
        <time>2021-03-31T15:53:31+02:00</time>
      </trkpt>
      <trkpt lat="48.16036" lon="6.88759">
        <ele>576</ele>
        <time>2021-03-31T15:53:54+02:00</time>
      </trkpt>
      <trkpt lat="48.16043" lon="6.88718">
        <ele>575</ele>
        <time>2021-03-31T15:54:20+02:00</time>
      </trkpt>
      <trkpt lat="48.16054" lon="6.88682">
        <ele>573</ele>
        <time>2021-03-31T15:54:46+02:00</time>
      </trkpt>
      <trkpt lat="48.16076" lon="6.88645">
        <ele>571</ele>
        <time>2021-03-31T15:55:13+02:00</time>
      </trkpt>
      <trkpt lat="48.16094" lon="6.88619">
        <ele>569</ele>
        <time>2021-03-31T15:55:40+02:00</time>
      </trkpt>
      <trkpt lat="48.16119" lon="6.88601">
        <ele>567</ele>
        <time>2021-03-31T15:56:04+02:00</time>
      </trkpt>
      <trkpt lat="48.16148" lon="6.88576">
        <ele>565</ele>
        <time>2021-03-31T15:56:28+02:00</time>
      </trkpt>
      <trkpt lat="48.16166" lon="6.88554">
        <ele>563</ele>
        <time>2021-03-31T15:56:53+02:00</time>
      </trkpt>
      <trkpt lat="48.16181" lon="6.88526">
        <ele>563</ele>
        <time>2021-03-31T15:57:15+02:00</time>
      </trkpt>
      <trkpt lat="48.16214" lon="6.88514">
        <ele>560</ele>
        <time>2021-03-31T15:57:34+02:00</time>
      </trkpt>
      <trkpt lat="48.16234" lon="6.88516">
        <ele>559</ele>
        <time>2021-03-31T15:57:55+02:00</time>
      </trkpt>
      <trkpt lat="48.16248" lon="6.88512">
        <ele>558</ele>
        <time>2021-03-31T15:58:50+02:00</time>
      </trkpt>
      <trkpt lat="48.16253" lon="6.88513">
        <ele>558</ele>
        <time>2021-03-31T16:03:12+02:00</time>
      </trkpt>
      <trkpt lat="48.16251" lon="6.88535">
        <ele>558</ele>
        <time>2021-03-31T16:03:54+02:00</time>
      </trkpt>
      <trkpt lat="48.16246" lon="6.88563">
        <ele>558</ele>
        <time>2021-03-31T16:04:14+02:00</time>
      </trkpt>
      <trkpt lat="48.1624" lon="6.88595">
        <ele>558</ele>
        <time>2021-03-31T16:04:45+02:00</time>
      </trkpt>
      <trkpt lat="48.16239" lon="6.88632">
        <ele>559</ele>
        <time>2021-03-31T16:05:13+02:00</time>
      </trkpt>
      <trkpt lat="48.16241" lon="6.8867">
        <ele>559</ele>
        <time>2021-03-31T16:05:35+02:00</time>
      </trkpt>
      <trkpt lat="48.16243" lon="6.88703">
        <ele>558</ele>
        <time>2021-03-31T16:05:59+02:00</time>
      </trkpt>
      <trkpt lat="48.16241" lon="6.88742">
        <ele>557</ele>
        <time>2021-03-31T16:06:23+02:00</time>
      </trkpt>
      <trkpt lat="48.16249" lon="6.88774">
        <ele>558</ele>
        <time>2021-03-31T16:06:48+02:00</time>
      </trkpt>
      <trkpt lat="48.16259" lon="6.88807">
        <ele>558</ele>
        <time>2021-03-31T16:07:10+02:00</time>
      </trkpt>
      <trkpt lat="48.16264" lon="6.88841">
        <ele>559</ele>
        <time>2021-03-31T16:07:33+02:00</time>
      </trkpt>
      <trkpt lat="48.16272" lon="6.88873">
        <ele>560</ele>
        <time>2021-03-31T16:08:06+02:00</time>
      </trkpt>
      <trkpt lat="48.16284" lon="6.88923">
        <ele>561</ele>
        <time>2021-03-31T16:08:34+02:00</time>
      </trkpt>
      <trkpt lat="48.16287" lon="6.88985">
        <ele>564</ele>
        <time>2021-03-31T16:08:59+02:00</time>
      </trkpt>
      <trkpt lat="48.1629" lon="6.8902">
        <ele>564</ele>
        <time>2021-03-31T16:09:24+02:00</time>
      </trkpt>
      <trkpt lat="48.16299" lon="6.8905">
        <ele>563</ele>
        <time>2021-03-31T16:09:48+02:00</time>
      </trkpt>
      <trkpt lat="48.16309" lon="6.89092">
        <ele>562</ele>
        <time>2021-03-31T16:10:17+02:00</time>
      </trkpt>
      <trkpt lat="48.16318" lon="6.89128">
        <ele>562</ele>
        <time>2021-03-31T16:10:42+02:00</time>
      </trkpt>
      <trkpt lat="48.16324" lon="6.89182">
        <ele>562</ele>
        <time>2021-03-31T16:11:14+02:00</time>
      </trkpt>
      <trkpt lat="48.1633" lon="6.8922">
        <ele>562</ele>
        <time>2021-03-31T16:11:44+02:00</time>
      </trkpt>
      <trkpt lat="48.16334" lon="6.89258">
        <ele>562</ele>
        <time>2021-03-31T16:12:07+02:00</time>
      </trkpt>
      <trkpt lat="48.16339" lon="6.89298">
        <ele>561</ele>
        <time>2021-03-31T16:12:30+02:00</time>
      </trkpt>
      <trkpt lat="48.16347" lon="6.89341">
        <ele>560</ele>
        <time>2021-03-31T16:12:54+02:00</time>
      </trkpt>
      <trkpt lat="48.16356" lon="6.8938">
        <ele>560</ele>
        <time>2021-03-31T16:13:18+02:00</time>
      </trkpt>
      <trkpt lat="48.16364" lon="6.89421">
        <ele>560</ele>
        <time>2021-03-31T16:13:43+02:00</time>
      </trkpt>
      <trkpt lat="48.16371" lon="6.89458">
        <ele>560</ele>
        <time>2021-03-31T16:14:07+02:00</time>
      </trkpt>
      <trkpt lat="48.16375" lon="6.89492">
        <ele>560</ele>
        <time>2021-03-31T16:14:28+02:00</time>
      </trkpt>
      <trkpt lat="48.16373" lon="6.89538">
        <ele>560</ele>
        <time>2021-03-31T16:14:51+02:00</time>
      </trkpt>
      <trkpt lat="48.16362" lon="6.8957">
        <ele>560</ele>
        <time>2021-03-31T16:15:09+02:00</time>
      </trkpt>
      <trkpt lat="48.16344" lon="6.8959">
        <ele>561</ele>
        <time>2021-03-31T16:15:25+02:00</time>
      </trkpt>
      <trkpt lat="48.1633" lon="6.89608">
        <ele>561</ele>
        <time>2021-03-31T16:15:54+02:00</time>
      </trkpt>
      <trkpt lat="48.16315" lon="6.89626">
        <ele>561</ele>
        <time>2021-03-31T16:16:10+02:00</time>
      </trkpt>
      <trkpt lat="48.163" lon="6.89644">
        <ele>561</ele>
        <time>2021-03-31T16:16:27+02:00</time>
      </trkpt>
      <trkpt lat="48.16284" lon="6.89663">
        <ele>561</ele>
        <time>2021-03-31T16:16:43+02:00</time>
      </trkpt>
      <trkpt lat="48.1627" lon="6.8968">
        <ele>562</ele>
        <time>2021-03-31T16:17:07+02:00</time>
      </trkpt>
      <trkpt lat="48.16255" lon="6.89697">
        <ele>562</ele>
        <time>2021-03-31T16:17:25+02:00</time>
      </trkpt>
      <trkpt lat="48.16247" lon="6.89723">
        <ele>563</ele>
        <time>2021-03-31T16:17:44+02:00</time>
      </trkpt>
      <trkpt lat="48.16263" lon="6.89749">
        <ele>563</ele>
        <time>2021-03-31T16:18:13+02:00</time>
      </trkpt>
      <trkpt lat="48.16284" lon="6.89767">
        <ele>562</ele>
        <time>2021-03-31T16:18:39+02:00</time>
      </trkpt>
      <trkpt lat="48.1631" lon="6.89779">
        <ele>561</ele>
        <time>2021-03-31T16:19:03+02:00</time>
      </trkpt>
      <trkpt lat="48.16313" lon="6.898">
        <ele>561</ele>
        <time>2021-03-31T16:19:53+02:00</time>
      </trkpt>
      <trkpt lat="48.16306" lon="6.89809">
        <ele>561</ele>
        <time>2021-03-31T16:20:55+02:00</time>
      </trkpt>
      <trkpt lat="48.16299" lon="6.89837">
        <ele>561</ele>
        <time>2021-03-31T16:21:30+02:00</time>
      </trkpt>
      <trkpt lat="48.16305" lon="6.89861">
        <ele>562</ele>
        <time>2021-03-31T16:21:59+02:00</time>
      </trkpt>
      <trkpt lat="48.16312" lon="6.8989">
        <ele>563</ele>
        <time>2021-03-31T16:22:21+02:00</time>
      </trkpt>
      <trkpt lat="48.16309" lon="6.8993">
        <ele>564</ele>
        <time>2021-03-31T16:22:43+02:00</time>
      </trkpt>
      <trkpt lat="48.16293" lon="6.89947">
        <ele>566</ele>
        <time>2021-03-31T16:23:16+02:00</time>
      </trkpt>
      <trkpt lat="48.16296" lon="6.89975">
        <ele>567</ele>
        <time>2021-03-31T16:23:36+02:00</time>
      </trkpt>
      <trkpt lat="48.16295" lon="6.90001">
        <ele>568</ele>
        <time>2021-03-31T16:23:53+02:00</time>
      </trkpt>
      <trkpt lat="48.16294" lon="6.90029">
        <ele>569</ele>
        <time>2021-03-31T16:24:11+02:00</time>
      </trkpt>
      <trkpt lat="48.16294" lon="6.90064">
        <ele>570</ele>
        <time>2021-03-31T16:24:35+02:00</time>
      </trkpt>
      <trkpt lat="48.16294" lon="6.90095">
        <ele>571</ele>
        <time>2021-03-31T16:25:05+02:00</time>
      </trkpt>
      <trkpt lat="48.16291" lon="6.9014">
        <ele>573</ele>
        <time>2021-03-31T16:25:35+02:00</time>
      </trkpt>
      <trkpt lat="48.16292" lon="6.90175">
        <ele>574</ele>
        <time>2021-03-31T16:25:59+02:00</time>
      </trkpt>
      <trkpt lat="48.16294" lon="6.90214">
        <ele>574</ele>
        <time>2021-03-31T16:26:21+02:00</time>
      </trkpt>
      <trkpt lat="48.16292" lon="6.90262">
        <ele>575</ele>
        <time>2021-03-31T16:26:48+02:00</time>
      </trkpt>
      <trkpt lat="48.16288" lon="6.90309">
        <ele>575</ele>
        <time>2021-03-31T16:27:23+02:00</time>
      </trkpt>
      <trkpt lat="48.1628" lon="6.90353">
        <ele>576</ele>
        <time>2021-03-31T16:27:52+02:00</time>
      </trkpt>
      <trkpt lat="48.16268" lon="6.90402">
        <ele>578</ele>
        <time>2021-03-31T16:28:24+02:00</time>
      </trkpt>
      <trkpt lat="48.1626" lon="6.90452">
        <ele>578</ele>
        <time>2021-03-31T16:28:53+02:00</time>
      </trkpt>
      <trkpt lat="48.16253" lon="6.90503">
        <ele>578</ele>
        <time>2021-03-31T16:29:17+02:00</time>
      </trkpt>
      <trkpt lat="48.16243" lon="6.90555">
        <ele>580</ele>
        <time>2021-03-31T16:29:48+02:00</time>
      </trkpt>
      <trkpt lat="48.16243" lon="6.90566">
        <ele>580</ele>
        <time>2021-03-31T16:30:22+02:00</time>
      </trkpt>
      <trkpt lat="48.16237" lon="6.90597">
        <ele>581</ele>
        <time>2021-03-31T16:30:49+02:00</time>
      </trkpt>
      <trkpt lat="48.16233" lon="6.90629">
        <ele>583</ele>
        <time>2021-03-31T16:31:10+02:00</time>
      </trkpt>
      <trkpt lat="48.16231" lon="6.90663">
        <ele>584</ele>
        <time>2021-03-31T16:31:32+02:00</time>
      </trkpt>
      <trkpt lat="48.16231" lon="6.90707">
        <ele>585</ele>
        <time>2021-03-31T16:31:57+02:00</time>
      </trkpt>
      <trkpt lat="48.16235" lon="6.90742">
        <ele>585</ele>
        <time>2021-03-31T16:32:20+02:00</time>
      </trkpt>
      <trkpt lat="48.16235" lon="6.9078">
        <ele>586</ele>
        <time>2021-03-31T16:32:43+02:00</time>
      </trkpt>
      <trkpt lat="48.16235" lon="6.90823">
        <ele>588</ele>
        <time>2021-03-31T16:33:06+02:00</time>
      </trkpt>
      <trkpt lat="48.16237" lon="6.90866">
        <ele>590</ele>
        <time>2021-03-31T16:33:30+02:00</time>
      </trkpt>
      <trkpt lat="48.16242" lon="6.90901">
        <ele>591</ele>
        <time>2021-03-31T16:33:58+02:00</time>
      </trkpt>
      <trkpt lat="48.1625" lon="6.90938">
        <ele>594</ele>
        <time>2021-03-31T16:34:21+02:00</time>
      </trkpt>
      <trkpt lat="48.16252" lon="6.90973">
        <ele>598</ele>
        <time>2021-03-31T16:34:44+02:00</time>
      </trkpt>
      <trkpt lat="48.16253" lon="6.91009">
        <ele>601</ele>
        <time>2021-03-31T16:35:04+02:00</time>
      </trkpt>
      <trkpt lat="48.16253" lon="6.91043">
        <ele>601</ele>
        <time>2021-03-31T16:35:28+02:00</time>
      </trkpt>
      <trkpt lat="48.16249" lon="6.91078">
        <ele>602</ele>
        <time>2021-03-31T16:35:53+02:00</time>
      </trkpt>
      <trkpt lat="48.1625" lon="6.91113">
        <ele>600</ele>
        <time>2021-03-31T16:36:22+02:00</time>
      </trkpt>
      <trkpt lat="48.16262" lon="6.91143">
        <ele>599</ele>
        <time>2021-03-31T16:36:40+02:00</time>
      </trkpt>
      <trkpt lat="48.16268" lon="6.91173">
        <ele>598</ele>
        <time>2021-03-31T16:37:00+02:00</time>
      </trkpt>
      <trkpt lat="48.16277" lon="6.91203">
        <ele>598</ele>
        <time>2021-03-31T16:37:25+02:00</time>
      </trkpt>
      <trkpt lat="48.16289" lon="6.9124">
        <ele>598</ele>
        <time>2021-03-31T16:37:53+02:00</time>
      </trkpt>
      <trkpt lat="48.16315" lon="6.91277">
        <ele>600</ele>
        <time>2021-03-31T16:38:33+02:00</time>
      </trkpt>
      <trkpt lat="48.16328" lon="6.9132">
        <ele>600</ele>
        <time>2021-03-31T16:39:05+02:00</time>
      </trkpt>
      <trkpt lat="48.16348" lon="6.91354">
        <ele>603</ele>
        <time>2021-03-31T16:39:34+02:00</time>
      </trkpt>
      <trkpt lat="48.1636" lon="6.9139">
        <ele>605</ele>
        <time>2021-03-31T16:40:01+02:00</time>
      </trkpt>
      <trkpt lat="48.16375" lon="6.91422">
        <ele>607</ele>
        <time>2021-03-31T16:40:27+02:00</time>
      </trkpt>
      <trkpt lat="48.16386" lon="6.91457">
        <ele>608</ele>
        <time>2021-03-31T16:40:51+02:00</time>
      </trkpt>
      <trkpt lat="48.164" lon="6.91483">
        <ele>609</ele>
        <time>2021-03-31T16:41:15+02:00</time>
      </trkpt>
      <trkpt lat="48.16415" lon="6.91505">
        <ele>610</ele>
        <time>2021-03-31T16:41:35+02:00</time>
      </trkpt>
      <trkpt lat="48.16431" lon="6.91525">
        <ele>612</ele>
        <time>2021-03-31T16:41:53+02:00</time>
      </trkpt>
      <trkpt lat="48.16446" lon="6.91544">
        <ele>613</ele>
        <time>2021-03-31T16:42:09+02:00</time>
      </trkpt>
      <trkpt lat="48.16459" lon="6.91568">
        <ele>614</ele>
        <time>2021-03-31T16:42:25+02:00</time>
      </trkpt>
      <trkpt lat="48.16475" lon="6.91584">
        <ele>616</ele>
        <time>2021-03-31T16:42:41+02:00</time>
      </trkpt>
      <trkpt lat="48.16493" lon="6.91594">
        <ele>617</ele>
        <time>2021-03-31T16:43:00+02:00</time>
      </trkpt>
      <trkpt lat="48.16506" lon="6.91612">
        <ele>618</ele>
        <time>2021-03-31T16:43:16+02:00</time>
      </trkpt>
      <trkpt lat="48.16518" lon="6.91634">
        <ele>619</ele>
        <time>2021-03-31T16:43:32+02:00</time>
      </trkpt>
      <trkpt lat="48.16526" lon="6.91659">
        <ele>619</ele>
        <time>2021-03-31T16:43:48+02:00</time>
      </trkpt>
      <trkpt lat="48.16537" lon="6.91681">
        <ele>619</ele>
        <time>2021-03-31T16:44:05+02:00</time>
      </trkpt>
      <trkpt lat="48.16546" lon="6.91706">
        <ele>619</ele>
        <time>2021-03-31T16:44:20+02:00</time>
      </trkpt>
      <trkpt lat="48.16543" lon="6.91737">
        <ele>619</ele>
        <time>2021-03-31T16:44:36+02:00</time>
      </trkpt>
      <trkpt lat="48.16542" lon="6.91765">
        <ele>619</ele>
        <time>2021-03-31T16:44:59+02:00</time>
      </trkpt>
      <trkpt lat="48.1654" lon="6.91797">
        <ele>619</ele>
        <time>2021-03-31T16:45:18+02:00</time>
      </trkpt>
      <trkpt lat="48.16541" lon="6.91831">
        <ele>619</ele>
        <time>2021-03-31T16:45:45+02:00</time>
      </trkpt>
    </trkseg>
  </trk>
</gpx>